<?xml version="1.0" encoding="UTF-8" standalone="no" ?>
<gpx xmlns="http://www.topografix.com/GPX/1/1" xmlns:xsi="http://www.w3.org/2001/XMLSchema-instance" xsi:schemaLocation="http://www.topografix.com/GPX/1/1 http://www.topografix.com/GPX/1/1/gpx.xsd" version="1.1" creator="VisuGPX - https://www.visugpx.com">
  <metadata>
    <name>Vtt reconnaissance rando Avril 2014 Partie 2_45km</name>
    <desc><![CDATA[Vtt reconnaissance rando Avril 2014 Partie 2_45km]]></desc>
  </metadata>
  <trk>
    <name><![CDATA[2014-01-26 09:40]]></name>
    <desc><![CDATA[<h1>OruxMaps</h1><br /><hr align="center" width="480" style="height: 2px; width: 517px"/><h2>Nom: 2014-01-26 09:40</h2><br /><p>Temps de départ: 01/26/2014 09:40</p><p>Temps d'arrivée: 01/26/2014 12:24</p><p>Distance: 27,1 km (02:43)</p><p>Temps déplacement: 01:37</p><p>Vitesse moyenne: 9,9 km/h</p><p>Vitesse moyenne: 16,6 km/h</p><p>Vitess Max.: 292,1 km/h</p><p>Altitude minimale: 28 m</p><p>Altitude maximale: 367 m</p><p>Vitesse d'élévation: 353,5 m/h</p><p>Vitesse de descente: -708,3 m/h</p><p>Gain Altitude: 468 m</p><p>Perte Altitude: -565 m</p><p>Temps d'élévation: 01:19</p><p>Temps de descente: 00:47</p><hr align="center" width="480" style="height: 2px; width: 517px"/>]]></desc>
    <trkseg>
      <trkpt lat="43.42141" lon="6.56677">
        <ele>144.33</ele>
        <time>2014-01-26T08:40:43Z</time>
      </trkpt>
      <trkpt lat="43.42161" lon="6.56668">
        <ele>150.96</ele>
        <time>2014-01-26T08:40:55Z</time>
      </trkpt>
      <trkpt lat="43.42172" lon="6.56647">
        <ele>156.32</ele>
        <time>2014-01-26T08:41:01Z</time>
      </trkpt>
      <trkpt lat="43.42139" lon="6.56671">
        <ele>152.58</ele>
        <time>2014-01-26T08:41:04Z</time>
      </trkpt>
      <trkpt lat="43.42123" lon="6.56691">
        <ele>147.24</ele>
        <time>2014-01-26T08:41:07Z</time>
      </trkpt>
      <trkpt lat="43.42106" lon="6.56705">
        <ele>149.83</ele>
        <time>2014-01-26T08:45:25Z</time>
      </trkpt>
      <trkpt lat="43.42087" lon="6.56711">
        <ele>149.35</ele>
        <time>2014-01-26T08:45:30Z</time>
      </trkpt>
      <trkpt lat="43.42068" lon="6.56708">
        <ele>147.96</ele>
        <time>2014-01-26T08:45:34Z</time>
      </trkpt>
      <trkpt lat="43.42047" lon="6.56715">
        <ele>146.5</ele>
        <time>2014-01-26T08:45:38Z</time>
      </trkpt>
      <trkpt lat="43.4203" lon="6.56726">
        <ele>146.35</ele>
        <time>2014-01-26T08:45:41Z</time>
      </trkpt>
      <trkpt lat="43.4201" lon="6.5674">
        <ele>146.33</ele>
        <time>2014-01-26T08:45:45Z</time>
      </trkpt>
      <trkpt lat="43.41993" lon="6.56752">
        <ele>147.3</ele>
        <time>2014-01-26T08:45:51Z</time>
      </trkpt>
      <trkpt lat="43.41972" lon="6.56748">
        <ele>147.33</ele>
        <time>2014-01-26T08:46:01Z</time>
      </trkpt>
      <trkpt lat="43.42025" lon="6.56784">
        <ele>146.83</ele>
        <time>2014-01-26T08:46:03Z</time>
      </trkpt>
      <trkpt lat="43.42012" lon="6.56665">
        <ele>146.58</ele>
        <time>2014-01-26T08:46:21Z</time>
      </trkpt>
      <trkpt lat="43.42005" lon="6.56696">
        <ele>146.36</ele>
        <time>2014-01-26T08:46:24Z</time>
      </trkpt>
      <trkpt lat="43.41995" lon="6.56672">
        <ele>146.33</ele>
        <time>2014-01-26T08:46:40Z</time>
      </trkpt>
      <trkpt lat="43.41985" lon="6.56652">
        <ele>146.33</ele>
        <time>2014-01-26T08:46:48Z</time>
      </trkpt>
      <trkpt lat="43.42003" lon="6.56643">
        <ele>141.71</ele>
        <time>2014-01-26T08:46:51Z</time>
      </trkpt>
      <trkpt lat="43.41981" lon="6.56636">
        <ele>136.83</ele>
        <time>2014-01-26T08:47:13Z</time>
      </trkpt>
      <trkpt lat="43.41973" lon="6.56614">
        <ele>137.83</ele>
        <time>2014-01-26T08:47:36Z</time>
      </trkpt>
      <trkpt lat="43.41991" lon="6.56607">
        <ele>137.82</ele>
        <time>2014-01-26T08:47:43Z</time>
      </trkpt>
      <trkpt lat="43.41985" lon="6.56577">
        <ele>130.83</ele>
        <time>2014-01-26T08:47:59Z</time>
      </trkpt>
      <trkpt lat="43.41986" lon="6.56552">
        <ele>130.33</ele>
        <time>2014-01-26T08:48:17Z</time>
      </trkpt>
      <trkpt lat="43.41979" lon="6.56516">
        <ele>129.83</ele>
        <time>2014-01-26T08:48:40Z</time>
      </trkpt>
      <trkpt lat="43.41966" lon="6.56494">
        <ele>130.33</ele>
        <time>2014-01-26T08:48:57Z</time>
      </trkpt>
      <trkpt lat="43.4194" lon="6.56454">
        <ele>130.33</ele>
        <time>2014-01-26T08:49:03Z</time>
      </trkpt>
      <trkpt lat="43.4192" lon="6.56483">
        <ele>129.83</ele>
        <time>2014-01-26T08:49:05Z</time>
      </trkpt>
      <trkpt lat="43.4194" lon="6.56478">
        <ele>128.33</ele>
        <time>2014-01-26T08:49:27Z</time>
      </trkpt>
      <trkpt lat="43.41945" lon="6.56451">
        <ele>128.33</ele>
        <time>2014-01-26T08:49:30Z</time>
      </trkpt>
      <trkpt lat="43.41954" lon="6.56426">
        <ele>128.33</ele>
        <time>2014-01-26T08:49:33Z</time>
      </trkpt>
      <trkpt lat="43.41963" lon="6.56402">
        <ele>128.33</ele>
        <time>2014-01-26T08:49:37Z</time>
      </trkpt>
      <trkpt lat="43.41973" lon="6.5638">
        <ele>129.83</ele>
        <time>2014-01-26T08:49:48Z</time>
      </trkpt>
      <trkpt lat="43.41985" lon="6.56359">
        <ele>131.32</ele>
        <time>2014-01-26T08:49:59Z</time>
      </trkpt>
      <trkpt lat="43.41985" lon="6.5633">
        <ele>131.33</ele>
        <time>2014-01-26T08:50:09Z</time>
      </trkpt>
      <trkpt lat="43.41984" lon="6.56298">
        <ele>132.3</ele>
        <time>2014-01-26T08:50:17Z</time>
      </trkpt>
      <trkpt lat="43.41978" lon="6.56272">
        <ele>132.33</ele>
        <time>2014-01-26T08:50:21Z</time>
      </trkpt>
      <trkpt lat="43.41969" lon="6.56246">
        <ele>132.33</ele>
        <time>2014-01-26T08:50:27Z</time>
      </trkpt>
      <trkpt lat="43.41961" lon="6.56222">
        <ele>133.32</ele>
        <time>2014-01-26T08:50:33Z</time>
      </trkpt>
      <trkpt lat="43.41953" lon="6.56197">
        <ele>134.21</ele>
        <time>2014-01-26T08:50:39Z</time>
      </trkpt>
      <trkpt lat="43.41946" lon="6.56173">
        <ele>134.33</ele>
        <time>2014-01-26T08:50:44Z</time>
      </trkpt>
      <trkpt lat="43.41939" lon="6.56149">
        <ele>134.33</ele>
        <time>2014-01-26T08:50:51Z</time>
      </trkpt>
      <trkpt lat="43.41936" lon="6.56124">
        <ele>134.33</ele>
        <time>2014-01-26T08:51:00Z</time>
      </trkpt>
      <trkpt lat="43.41931" lon="6.561">
        <ele>135.08</ele>
        <time>2014-01-26T08:51:06Z</time>
      </trkpt>
      <trkpt lat="43.4193" lon="6.56074">
        <ele>135.32</ele>
        <time>2014-01-26T08:51:10Z</time>
      </trkpt>
      <trkpt lat="43.41931" lon="6.56047">
        <ele>137.21</ele>
        <time>2014-01-26T08:51:14Z</time>
      </trkpt>
      <trkpt lat="43.41929" lon="6.56016">
        <ele>142.2</ele>
        <time>2014-01-26T08:51:18Z</time>
      </trkpt>
      <trkpt lat="43.41929" lon="6.55988">
        <ele>144.95</ele>
        <time>2014-01-26T08:51:22Z</time>
      </trkpt>
      <trkpt lat="43.4193" lon="6.55961">
        <ele>145.31</ele>
        <time>2014-01-26T08:51:26Z</time>
      </trkpt>
      <trkpt lat="43.41935" lon="6.55935">
        <ele>146.3</ele>
        <time>2014-01-26T08:51:31Z</time>
      </trkpt>
      <trkpt lat="43.41949" lon="6.5591">
        <ele>147.71</ele>
        <time>2014-01-26T08:51:35Z</time>
      </trkpt>
      <trkpt lat="43.41964" lon="6.5589">
        <ele>149.23</ele>
        <time>2014-01-26T08:51:39Z</time>
      </trkpt>
      <trkpt lat="43.41964" lon="6.55863">
        <ele>150.27</ele>
        <time>2014-01-26T08:51:45Z</time>
      </trkpt>
      <trkpt lat="43.41954" lon="6.5584">
        <ele>150.33</ele>
        <time>2014-01-26T08:51:52Z</time>
      </trkpt>
      <trkpt lat="43.41936" lon="6.55838">
        <ele>150.33</ele>
        <time>2014-01-26T08:51:58Z</time>
      </trkpt>
      <trkpt lat="43.41919" lon="6.55825">
        <ele>151.33</ele>
        <time>2014-01-26T08:52:09Z</time>
      </trkpt>
      <trkpt lat="43.41917" lon="6.55793">
        <ele>152.32</ele>
        <time>2014-01-26T08:52:19Z</time>
      </trkpt>
      <trkpt lat="43.41906" lon="6.55773">
        <ele>152.33</ele>
        <time>2014-01-26T08:52:33Z</time>
      </trkpt>
      <trkpt lat="43.41887" lon="6.55755">
        <ele>152.33</ele>
        <time>2014-01-26T08:52:49Z</time>
      </trkpt>
      <trkpt lat="43.41869" lon="6.55735">
        <ele>152.33</ele>
        <time>2014-01-26T08:53:01Z</time>
      </trkpt>
      <trkpt lat="43.41845" lon="6.55735">
        <ele>152.33</ele>
        <time>2014-01-26T08:53:34Z</time>
      </trkpt>
      <trkpt lat="43.41822" lon="6.55747">
        <ele>152.33</ele>
        <time>2014-01-26T08:53:44Z</time>
      </trkpt>
      <trkpt lat="43.41801" lon="6.55748">
        <ele>151.35</ele>
        <time>2014-01-26T08:53:51Z</time>
      </trkpt>
      <trkpt lat="43.41781" lon="6.55748">
        <ele>150.4</ele>
        <time>2014-01-26T08:54:00Z</time>
      </trkpt>
      <trkpt lat="43.41757" lon="6.55763">
        <ele>148.84</ele>
        <time>2014-01-26T08:54:23Z</time>
      </trkpt>
      <trkpt lat="43.41741" lon="6.55777">
        <ele>144.83</ele>
        <time>2014-01-26T08:55:18Z</time>
      </trkpt>
      <trkpt lat="43.41733" lon="6.55799">
        <ele>136.33</ele>
        <time>2014-01-26T08:57:45Z</time>
      </trkpt>
      <trkpt lat="43.41735" lon="6.55773">
        <ele>136.33</ele>
        <time>2014-01-26T08:58:07Z</time>
      </trkpt>
      <trkpt lat="43.4174" lon="6.55747">
        <ele>135.96</ele>
        <time>2014-01-26T08:58:55Z</time>
      </trkpt>
      <trkpt lat="43.41746" lon="6.55723">
        <ele>135.41</ele>
        <time>2014-01-26T08:58:58Z</time>
      </trkpt>
      <trkpt lat="43.41757" lon="6.55702">
        <ele>134.84</ele>
        <time>2014-01-26T08:59:01Z</time>
      </trkpt>
      <trkpt lat="43.41763" lon="6.55676">
        <ele>134.9</ele>
        <time>2014-01-26T08:59:04Z</time>
      </trkpt>
      <trkpt lat="43.41765" lon="6.55648">
        <ele>135.28</ele>
        <time>2014-01-26T08:59:07Z</time>
      </trkpt>
      <trkpt lat="43.41776" lon="6.55625">
        <ele>135.33</ele>
        <time>2014-01-26T08:59:10Z</time>
      </trkpt>
      <trkpt lat="43.41792" lon="6.55604">
        <ele>135.33</ele>
        <time>2014-01-26T08:59:13Z</time>
      </trkpt>
      <trkpt lat="43.41808" lon="6.55582">
        <ele>134.83</ele>
        <time>2014-01-26T08:59:16Z</time>
      </trkpt>
      <trkpt lat="43.41822" lon="6.55558">
        <ele>134.4</ele>
        <time>2014-01-26T08:59:19Z</time>
      </trkpt>
      <trkpt lat="43.41837" lon="6.55537">
        <ele>134.34</ele>
        <time>2014-01-26T08:59:22Z</time>
      </trkpt>
      <trkpt lat="43.41846" lon="6.55516">
        <ele>134.33</ele>
        <time>2014-01-26T08:59:25Z</time>
      </trkpt>
      <trkpt lat="43.41851" lon="6.5549">
        <ele>134.33</ele>
        <time>2014-01-26T08:59:29Z</time>
      </trkpt>
      <trkpt lat="43.41854" lon="6.55517">
        <ele>131.9</ele>
        <time>2014-01-26T08:59:39Z</time>
      </trkpt>
      <trkpt lat="43.41869" lon="6.55498">
        <ele>130.34</ele>
        <time>2014-01-26T08:59:52Z</time>
      </trkpt>
      <trkpt lat="43.41885" lon="6.55485">
        <ele>129.46</ele>
        <time>2014-01-26T08:59:57Z</time>
      </trkpt>
      <trkpt lat="43.41903" lon="6.55476">
        <ele>128.34</ele>
        <time>2014-01-26T09:00:07Z</time>
      </trkpt>
      <trkpt lat="43.41925" lon="6.55466">
        <ele>128.33</ele>
        <time>2014-01-26T09:00:21Z</time>
      </trkpt>
      <trkpt lat="43.41934" lon="6.55437">
        <ele>128.33</ele>
        <time>2014-01-26T09:00:30Z</time>
      </trkpt>
      <trkpt lat="43.41917" lon="6.55416">
        <ele>128.33</ele>
        <time>2014-01-26T09:00:38Z</time>
      </trkpt>
      <trkpt lat="43.41901" lon="6.55399">
        <ele>127.83</ele>
        <time>2014-01-26T09:00:48Z</time>
      </trkpt>
      <trkpt lat="43.41893" lon="6.55376">
        <ele>126.83</ele>
        <time>2014-01-26T09:01:02Z</time>
      </trkpt>
      <trkpt lat="43.4188" lon="6.55357">
        <ele>126.33</ele>
        <time>2014-01-26T09:01:20Z</time>
      </trkpt>
      <trkpt lat="43.41875" lon="6.5533">
        <ele>126.33</ele>
        <time>2014-01-26T09:01:31Z</time>
      </trkpt>
      <trkpt lat="43.41876" lon="6.55304">
        <ele>124.84</ele>
        <time>2014-01-26T09:01:42Z</time>
      </trkpt>
      <trkpt lat="43.41878" lon="6.55278">
        <ele>124.33</ele>
        <time>2014-01-26T09:01:53Z</time>
      </trkpt>
      <trkpt lat="43.41888" lon="6.55243">
        <ele>124.33</ele>
        <time>2014-01-26T09:02:06Z</time>
      </trkpt>
      <trkpt lat="43.41891" lon="6.55215">
        <ele>124.33</ele>
        <time>2014-01-26T09:02:18Z</time>
      </trkpt>
      <trkpt lat="43.4188" lon="6.55191">
        <ele>124.33</ele>
        <time>2014-01-26T09:02:30Z</time>
      </trkpt>
      <trkpt lat="43.41872" lon="6.55155">
        <ele>124.33</ele>
        <time>2014-01-26T09:02:49Z</time>
      </trkpt>
      <trkpt lat="43.41868" lon="6.55131">
        <ele>125.33</ele>
        <time>2014-01-26T09:02:59Z</time>
      </trkpt>
      <trkpt lat="43.41862" lon="6.55105">
        <ele>125.33</ele>
        <time>2014-01-26T09:03:08Z</time>
      </trkpt>
      <trkpt lat="43.41869" lon="6.55071">
        <ele>125.33</ele>
        <time>2014-01-26T09:03:20Z</time>
      </trkpt>
      <trkpt lat="43.4187" lon="6.55043">
        <ele>125.33</ele>
        <time>2014-01-26T09:03:28Z</time>
      </trkpt>
      <trkpt lat="43.41873" lon="6.55017">
        <ele>125.33</ele>
        <time>2014-01-26T09:03:34Z</time>
      </trkpt>
      <trkpt lat="43.41864" lon="6.54993">
        <ele>125.33</ele>
        <time>2014-01-26T09:03:40Z</time>
      </trkpt>
      <trkpt lat="43.41865" lon="6.54965">
        <ele>126.33</ele>
        <time>2014-01-26T09:03:48Z</time>
      </trkpt>
      <trkpt lat="43.41877" lon="6.54947">
        <ele>126.33</ele>
        <time>2014-01-26T09:03:55Z</time>
      </trkpt>
      <trkpt lat="43.41894" lon="6.54934">
        <ele>126.33</ele>
        <time>2014-01-26T09:04:03Z</time>
      </trkpt>
      <trkpt lat="43.41912" lon="6.54918">
        <ele>126.33</ele>
        <time>2014-01-26T09:04:18Z</time>
      </trkpt>
      <trkpt lat="43.4193" lon="6.54914">
        <ele>127.21</ele>
        <time>2014-01-26T09:04:33Z</time>
      </trkpt>
      <trkpt lat="43.41947" lon="6.54925">
        <ele>127.33</ele>
        <time>2014-01-26T09:04:41Z</time>
      </trkpt>
      <trkpt lat="43.41953" lon="6.549">
        <ele>127.33</ele>
        <time>2014-01-26T09:05:02Z</time>
      </trkpt>
      <trkpt lat="43.41949" lon="6.54874">
        <ele>127.33</ele>
        <time>2014-01-26T09:05:13Z</time>
      </trkpt>
      <trkpt lat="43.4195" lon="6.54848">
        <ele>127.33</ele>
        <time>2014-01-26T09:05:24Z</time>
      </trkpt>
      <trkpt lat="43.41932" lon="6.54843">
        <ele>127.33</ele>
        <time>2014-01-26T09:05:36Z</time>
      </trkpt>
      <trkpt lat="43.41918" lon="6.54828">
        <ele>128.33</ele>
        <time>2014-01-26T09:06:00Z</time>
      </trkpt>
      <trkpt lat="43.41904" lon="6.5481">
        <ele>129.33</ele>
        <time>2014-01-26T09:06:28Z</time>
      </trkpt>
      <trkpt lat="43.41887" lon="6.54798">
        <ele>129.33</ele>
        <time>2014-01-26T09:06:44Z</time>
      </trkpt>
      <trkpt lat="43.41886" lon="6.54772">
        <ele>129.33</ele>
        <time>2014-01-26T09:07:01Z</time>
      </trkpt>
      <trkpt lat="43.41879" lon="6.54747">
        <ele>132.33</ele>
        <time>2014-01-26T09:07:37Z</time>
      </trkpt>
      <trkpt lat="43.41872" lon="6.54721">
        <ele>132.33</ele>
        <time>2014-01-26T09:07:46Z</time>
      </trkpt>
      <trkpt lat="43.41865" lon="6.54698">
        <ele>133.33</ele>
        <time>2014-01-26T09:07:57Z</time>
      </trkpt>
      <trkpt lat="43.41864" lon="6.54673">
        <ele>133.33</ele>
        <time>2014-01-26T09:08:10Z</time>
      </trkpt>
      <trkpt lat="43.41869" lon="6.54647">
        <ele>134.33</ele>
        <time>2014-01-26T09:08:20Z</time>
      </trkpt>
      <trkpt lat="43.41879" lon="6.54626">
        <ele>134.33</ele>
        <time>2014-01-26T09:08:28Z</time>
      </trkpt>
      <trkpt lat="43.41892" lon="6.54607">
        <ele>135.33</ele>
        <time>2014-01-26T09:08:39Z</time>
      </trkpt>
      <trkpt lat="43.41907" lon="6.54588">
        <ele>136.32</ele>
        <time>2014-01-26T09:08:49Z</time>
      </trkpt>
      <trkpt lat="43.41917" lon="6.54568">
        <ele>136.33</ele>
        <time>2014-01-26T09:08:59Z</time>
      </trkpt>
      <trkpt lat="43.41924" lon="6.54545">
        <ele>137.33</ele>
        <time>2014-01-26T09:09:09Z</time>
      </trkpt>
      <trkpt lat="43.41927" lon="6.5452">
        <ele>138.27</ele>
        <time>2014-01-26T09:09:23Z</time>
      </trkpt>
      <trkpt lat="43.41925" lon="6.54495">
        <ele>139.27</ele>
        <time>2014-01-26T09:09:33Z</time>
      </trkpt>
      <trkpt lat="43.41929" lon="6.54471">
        <ele>140.3</ele>
        <time>2014-01-26T09:09:45Z</time>
      </trkpt>
      <trkpt lat="43.41939" lon="6.54449">
        <ele>140.33</ele>
        <time>2014-01-26T09:09:59Z</time>
      </trkpt>
      <trkpt lat="43.41921" lon="6.54458">
        <ele>158.69</ele>
        <time>2014-01-26T09:16:45Z</time>
      </trkpt>
      <trkpt lat="43.41902" lon="6.54445">
        <ele>161.17</ele>
        <time>2014-01-26T09:16:51Z</time>
      </trkpt>
      <trkpt lat="43.41885" lon="6.54435">
        <ele>163.19</ele>
        <time>2014-01-26T09:16:57Z</time>
      </trkpt>
      <trkpt lat="43.41868" lon="6.54428">
        <ele>165.26</ele>
        <time>2014-01-26T09:17:04Z</time>
      </trkpt>
      <trkpt lat="43.4185" lon="6.54422">
        <ele>167.07</ele>
        <time>2014-01-26T09:17:11Z</time>
      </trkpt>
      <trkpt lat="43.41829" lon="6.54416">
        <ele>168.27</ele>
        <time>2014-01-26T09:17:18Z</time>
      </trkpt>
      <trkpt lat="43.41812" lon="6.54405">
        <ele>169.33</ele>
        <time>2014-01-26T09:17:27Z</time>
      </trkpt>
      <trkpt lat="43.41796" lon="6.54385">
        <ele>172.05</ele>
        <time>2014-01-26T09:17:32Z</time>
      </trkpt>
      <trkpt lat="43.41778" lon="6.54368">
        <ele>175.44</ele>
        <time>2014-01-26T09:17:36Z</time>
      </trkpt>
      <trkpt lat="43.41759" lon="6.54355">
        <ele>177.99</ele>
        <time>2014-01-26T09:17:41Z</time>
      </trkpt>
      <trkpt lat="43.41738" lon="6.54351">
        <ele>179.2</ele>
        <time>2014-01-26T09:17:46Z</time>
      </trkpt>
      <trkpt lat="43.41718" lon="6.54361">
        <ele>181.02</ele>
        <time>2014-01-26T09:17:51Z</time>
      </trkpt>
      <trkpt lat="43.417" lon="6.54372">
        <ele>182.31</ele>
        <time>2014-01-26T09:17:57Z</time>
      </trkpt>
      <trkpt lat="43.41681" lon="6.54376">
        <ele>182.33</ele>
        <time>2014-01-26T09:18:03Z</time>
      </trkpt>
      <trkpt lat="43.41662" lon="6.54383">
        <ele>183.3</ele>
        <time>2014-01-26T09:18:08Z</time>
      </trkpt>
      <trkpt lat="43.41646" lon="6.54398">
        <ele>183.33</ele>
        <time>2014-01-26T09:18:12Z</time>
      </trkpt>
      <trkpt lat="43.41631" lon="6.54422">
        <ele>183.83</ele>
        <time>2014-01-26T09:18:16Z</time>
      </trkpt>
      <trkpt lat="43.41614" lon="6.54442">
        <ele>184.3</ele>
        <time>2014-01-26T09:18:20Z</time>
      </trkpt>
      <trkpt lat="43.41596" lon="6.54463">
        <ele>184.33</ele>
        <time>2014-01-26T09:18:24Z</time>
      </trkpt>
      <trkpt lat="43.41579" lon="6.5448">
        <ele>184.33</ele>
        <time>2014-01-26T09:18:28Z</time>
      </trkpt>
      <trkpt lat="43.41559" lon="6.54489">
        <ele>184.83</ele>
        <time>2014-01-26T09:18:32Z</time>
      </trkpt>
      <trkpt lat="43.41544" lon="6.54502">
        <ele>186.05</ele>
        <time>2014-01-26T09:18:36Z</time>
      </trkpt>
      <trkpt lat="43.4153" lon="6.5452">
        <ele>187.2</ele>
        <time>2014-01-26T09:18:41Z</time>
      </trkpt>
      <trkpt lat="43.41518" lon="6.54538">
        <ele>188.32</ele>
        <time>2014-01-26T09:18:47Z</time>
      </trkpt>
      <trkpt lat="43.41498" lon="6.54534">
        <ele>188.33</ele>
        <time>2014-01-26T09:19:01Z</time>
      </trkpt>
      <trkpt lat="43.41486" lon="6.5451">
        <ele>188.33</ele>
        <time>2014-01-26T09:19:10Z</time>
      </trkpt>
      <trkpt lat="43.41484" lon="6.54485">
        <ele>188.33</ele>
        <time>2014-01-26T09:19:15Z</time>
      </trkpt>
      <trkpt lat="43.4148" lon="6.54455">
        <ele>188.83</ele>
        <time>2014-01-26T09:19:24Z</time>
      </trkpt>
      <trkpt lat="43.41479" lon="6.54426">
        <ele>189.33</ele>
        <time>2014-01-26T09:19:34Z</time>
      </trkpt>
      <trkpt lat="43.41477" lon="6.544">
        <ele>189.83</ele>
        <time>2014-01-26T09:19:45Z</time>
      </trkpt>
      <trkpt lat="43.41475" lon="6.54366">
        <ele>190.83</ele>
        <time>2014-01-26T09:20:01Z</time>
      </trkpt>
      <trkpt lat="43.4147" lon="6.5434">
        <ele>191.33</ele>
        <time>2014-01-26T09:20:13Z</time>
      </trkpt>
      <trkpt lat="43.41477" lon="6.54306">
        <ele>192.33</ele>
        <time>2014-01-26T09:20:29Z</time>
      </trkpt>
      <trkpt lat="43.41486" lon="6.54284">
        <ele>192.33</ele>
        <time>2014-01-26T09:20:43Z</time>
      </trkpt>
      <trkpt lat="43.41496" lon="6.54262">
        <ele>192.33</ele>
        <time>2014-01-26T09:20:57Z</time>
      </trkpt>
      <trkpt lat="43.41507" lon="6.54228">
        <ele>193.32</ele>
        <time>2014-01-26T09:21:10Z</time>
      </trkpt>
      <trkpt lat="43.41493" lon="6.54207">
        <ele>194.27</ele>
        <time>2014-01-26T09:21:18Z</time>
      </trkpt>
      <trkpt lat="43.41475" lon="6.54192">
        <ele>195.3</ele>
        <time>2014-01-26T09:21:25Z</time>
      </trkpt>
      <trkpt lat="43.4149" lon="6.54172">
        <ele>199.27</ele>
        <time>2014-01-26T09:23:14Z</time>
      </trkpt>
      <trkpt lat="43.41503" lon="6.54151">
        <ele>201.55</ele>
        <time>2014-01-26T09:23:19Z</time>
      </trkpt>
      <trkpt lat="43.41516" lon="6.54128">
        <ele>204.96</ele>
        <time>2014-01-26T09:23:24Z</time>
      </trkpt>
      <trkpt lat="43.41521" lon="6.54099">
        <ele>205.31</ele>
        <time>2014-01-26T09:23:28Z</time>
      </trkpt>
      <trkpt lat="43.41533" lon="6.54074">
        <ele>205.33</ele>
        <time>2014-01-26T09:23:32Z</time>
      </trkpt>
      <trkpt lat="43.41546" lon="6.54055">
        <ele>205.33</ele>
        <time>2014-01-26T09:23:36Z</time>
      </trkpt>
      <trkpt lat="43.41566" lon="6.54051">
        <ele>206.21</ele>
        <time>2014-01-26T09:23:40Z</time>
      </trkpt>
      <trkpt lat="43.41584" lon="6.54044">
        <ele>207.26</ele>
        <time>2014-01-26T09:23:44Z</time>
      </trkpt>
      <trkpt lat="43.416" lon="6.54025">
        <ele>208.2</ele>
        <time>2014-01-26T09:23:48Z</time>
      </trkpt>
      <trkpt lat="43.41616" lon="6.54">
        <ele>208.32</ele>
        <time>2014-01-26T09:23:52Z</time>
      </trkpt>
      <trkpt lat="43.41626" lon="6.53979">
        <ele>209.21</ele>
        <time>2014-01-26T09:23:55Z</time>
      </trkpt>
      <trkpt lat="43.41637" lon="6.53959">
        <ele>209.32</ele>
        <time>2014-01-26T09:23:58Z</time>
      </trkpt>
      <trkpt lat="43.41653" lon="6.53935">
        <ele>210.27</ele>
        <time>2014-01-26T09:24:02Z</time>
      </trkpt>
      <trkpt lat="43.41662" lon="6.53906">
        <ele>210.33</ele>
        <time>2014-01-26T09:24:06Z</time>
      </trkpt>
      <trkpt lat="43.4168" lon="6.53888">
        <ele>210.33</ele>
        <time>2014-01-26T09:24:10Z</time>
      </trkpt>
      <trkpt lat="43.41695" lon="6.53864">
        <ele>209.58</ele>
        <time>2014-01-26T09:24:14Z</time>
      </trkpt>
      <trkpt lat="43.41715" lon="6.53862">
        <ele>209.34</ele>
        <time>2014-01-26T09:24:20Z</time>
      </trkpt>
      <trkpt lat="43.41736" lon="6.5386">
        <ele>209.33</ele>
        <time>2014-01-26T09:24:24Z</time>
      </trkpt>
      <trkpt lat="43.41757" lon="6.53847">
        <ele>208.4</ele>
        <time>2014-01-26T09:24:28Z</time>
      </trkpt>
      <trkpt lat="43.41775" lon="6.53829">
        <ele>208.34</ele>
        <time>2014-01-26T09:24:32Z</time>
      </trkpt>
      <trkpt lat="43.41792" lon="6.53814">
        <ele>208.33</ele>
        <time>2014-01-26T09:24:36Z</time>
      </trkpt>
      <trkpt lat="43.41805" lon="6.53795">
        <ele>209.08</ele>
        <time>2014-01-26T09:24:40Z</time>
      </trkpt>
      <trkpt lat="43.41818" lon="6.53772">
        <ele>209.32</ele>
        <time>2014-01-26T09:24:44Z</time>
      </trkpt>
      <trkpt lat="43.41828" lon="6.53747">
        <ele>209.33</ele>
        <time>2014-01-26T09:24:48Z</time>
      </trkpt>
      <trkpt lat="43.41847" lon="6.53745">
        <ele>208.33</ele>
        <time>2014-01-26T09:25:05Z</time>
      </trkpt>
      <trkpt lat="43.41862" lon="6.5376">
        <ele>208.33</ele>
        <time>2014-01-26T09:25:14Z</time>
      </trkpt>
      <trkpt lat="43.41878" lon="6.53774">
        <ele>208.33</ele>
        <time>2014-01-26T09:25:23Z</time>
      </trkpt>
      <trkpt lat="43.41899" lon="6.53775">
        <ele>208.33</ele>
        <time>2014-01-26T09:25:34Z</time>
      </trkpt>
      <trkpt lat="43.41912" lon="6.53754">
        <ele>208.33</ele>
        <time>2014-01-26T09:25:42Z</time>
      </trkpt>
      <trkpt lat="43.41926" lon="6.53733">
        <ele>208.33</ele>
        <time>2014-01-26T09:25:50Z</time>
      </trkpt>
      <trkpt lat="43.41939" lon="6.53712">
        <ele>208.33</ele>
        <time>2014-01-26T09:25:57Z</time>
      </trkpt>
      <trkpt lat="43.41951" lon="6.5369">
        <ele>208.33</ele>
        <time>2014-01-26T09:26:04Z</time>
      </trkpt>
      <trkpt lat="43.41967" lon="6.53676">
        <ele>208.33</ele>
        <time>2014-01-26T09:26:12Z</time>
      </trkpt>
      <trkpt lat="43.41983" lon="6.53663">
        <ele>207.34</ele>
        <time>2014-01-26T09:26:20Z</time>
      </trkpt>
      <trkpt lat="43.42" lon="6.53651">
        <ele>207.33</ele>
        <time>2014-01-26T09:26:30Z</time>
      </trkpt>
      <trkpt lat="43.42019" lon="6.53645">
        <ele>207.33</ele>
        <time>2014-01-26T09:26:38Z</time>
      </trkpt>
      <trkpt lat="43.42036" lon="6.53655">
        <ele>207.33</ele>
        <time>2014-01-26T09:26:47Z</time>
      </trkpt>
      <trkpt lat="43.42057" lon="6.53653">
        <ele>208.3</ele>
        <time>2014-01-26T09:26:59Z</time>
      </trkpt>
      <trkpt lat="43.42075" lon="6.53638">
        <ele>208.33</ele>
        <time>2014-01-26T09:27:05Z</time>
      </trkpt>
      <trkpt lat="43.42092" lon="6.53626">
        <ele>209.27</ele>
        <time>2014-01-26T09:27:10Z</time>
      </trkpt>
      <trkpt lat="43.42111" lon="6.53616">
        <ele>210.3</ele>
        <time>2014-01-26T09:27:15Z</time>
      </trkpt>
      <trkpt lat="43.42128" lon="6.53602">
        <ele>210.33</ele>
        <time>2014-01-26T09:27:21Z</time>
      </trkpt>
      <trkpt lat="43.42144" lon="6.53614">
        <ele>210.33</ele>
        <time>2014-01-26T09:27:29Z</time>
      </trkpt>
      <trkpt lat="43.42158" lon="6.53633">
        <ele>210.33</ele>
        <time>2014-01-26T09:27:38Z</time>
      </trkpt>
      <trkpt lat="43.42175" lon="6.53644">
        <ele>211.33</ele>
        <time>2014-01-26T09:27:48Z</time>
      </trkpt>
      <trkpt lat="43.42193" lon="6.5365">
        <ele>211.33</ele>
        <time>2014-01-26T09:27:56Z</time>
      </trkpt>
      <trkpt lat="43.42212" lon="6.53659">
        <ele>211.33</ele>
        <time>2014-01-26T09:28:04Z</time>
      </trkpt>
      <trkpt lat="43.4223" lon="6.53667">
        <ele>211.33</ele>
        <time>2014-01-26T09:28:11Z</time>
      </trkpt>
      <trkpt lat="43.42248" lon="6.53657">
        <ele>211.33</ele>
        <time>2014-01-26T09:28:17Z</time>
      </trkpt>
      <trkpt lat="43.42263" lon="6.53639">
        <ele>211.33</ele>
        <time>2014-01-26T09:28:24Z</time>
      </trkpt>
      <trkpt lat="43.42276" lon="6.53621">
        <ele>211.33</ele>
        <time>2014-01-26T09:28:31Z</time>
      </trkpt>
      <trkpt lat="43.42286" lon="6.536">
        <ele>212.33</ele>
        <time>2014-01-26T09:28:38Z</time>
      </trkpt>
      <trkpt lat="43.423" lon="6.53578">
        <ele>212.33</ele>
        <time>2014-01-26T09:28:45Z</time>
      </trkpt>
      <trkpt lat="43.42312" lon="6.53559">
        <ele>212.33</ele>
        <time>2014-01-26T09:28:50Z</time>
      </trkpt>
      <trkpt lat="43.42324" lon="6.53539">
        <ele>212.83</ele>
        <time>2014-01-26T09:28:57Z</time>
      </trkpt>
      <trkpt lat="43.42343" lon="6.53526">
        <ele>213.33</ele>
        <time>2014-01-26T09:29:04Z</time>
      </trkpt>
      <trkpt lat="43.42365" lon="6.53521">
        <ele>214.77</ele>
        <time>2014-01-26T09:29:09Z</time>
      </trkpt>
      <trkpt lat="43.42387" lon="6.53516">
        <ele>215.32</ele>
        <time>2014-01-26T09:29:14Z</time>
      </trkpt>
      <trkpt lat="43.42406" lon="6.5351">
        <ele>216.3</ele>
        <time>2014-01-26T09:29:19Z</time>
      </trkpt>
      <trkpt lat="43.42423" lon="6.53499">
        <ele>216.33</ele>
        <time>2014-01-26T09:29:24Z</time>
      </trkpt>
      <trkpt lat="43.42405" lon="6.53481">
        <ele>218.36</ele>
        <time>2014-01-26T09:32:22Z</time>
      </trkpt>
      <trkpt lat="43.42389" lon="6.53459">
        <ele>217.83</ele>
        <time>2014-01-26T09:32:27Z</time>
      </trkpt>
      <trkpt lat="43.42375" lon="6.53438">
        <ele>215.68</ele>
        <time>2014-01-26T09:32:31Z</time>
      </trkpt>
      <trkpt lat="43.4236" lon="6.53419">
        <ele>214.42</ele>
        <time>2014-01-26T09:32:35Z</time>
      </trkpt>
      <trkpt lat="43.42344" lon="6.53397">
        <ele>215.21</ele>
        <time>2014-01-26T09:32:39Z</time>
      </trkpt>
      <trkpt lat="43.42326" lon="6.53376">
        <ele>215.33</ele>
        <time>2014-01-26T09:32:43Z</time>
      </trkpt>
      <trkpt lat="43.42309" lon="6.5336">
        <ele>215.33</ele>
        <time>2014-01-26T09:32:46Z</time>
      </trkpt>
      <trkpt lat="43.42291" lon="6.53346">
        <ele>216.21</ele>
        <time>2014-01-26T09:32:49Z</time>
      </trkpt>
      <trkpt lat="43.42271" lon="6.53347">
        <ele>216.32</ele>
        <time>2014-01-26T09:32:52Z</time>
      </trkpt>
      <trkpt lat="43.42252" lon="6.53345">
        <ele>216.33</ele>
        <time>2014-01-26T09:32:55Z</time>
      </trkpt>
      <trkpt lat="43.42235" lon="6.53333">
        <ele>217.21</ele>
        <time>2014-01-26T09:32:58Z</time>
      </trkpt>
      <trkpt lat="43.42223" lon="6.53312">
        <ele>217.32</ele>
        <time>2014-01-26T09:33:01Z</time>
      </trkpt>
      <trkpt lat="43.42214" lon="6.53285">
        <ele>217.33</ele>
        <time>2014-01-26T09:33:04Z</time>
      </trkpt>
      <trkpt lat="43.42205" lon="6.53257">
        <ele>218.08</ele>
        <time>2014-01-26T09:33:07Z</time>
      </trkpt>
      <trkpt lat="43.42193" lon="6.5323">
        <ele>218.3</ele>
        <time>2014-01-26T09:33:10Z</time>
      </trkpt>
      <trkpt lat="43.42176" lon="6.53206">
        <ele>218.83</ele>
        <time>2014-01-26T09:33:13Z</time>
      </trkpt>
      <trkpt lat="43.42155" lon="6.532">
        <ele>219.77</ele>
        <time>2014-01-26T09:33:16Z</time>
      </trkpt>
      <trkpt lat="43.42135" lon="6.53199">
        <ele>220.26</ele>
        <time>2014-01-26T09:33:19Z</time>
      </trkpt>
      <trkpt lat="43.42116" lon="6.53199">
        <ele>220.32</ele>
        <time>2014-01-26T09:33:21Z</time>
      </trkpt>
      <trkpt lat="43.42091" lon="6.53202">
        <ele>220.33</ele>
        <time>2014-01-26T09:33:24Z</time>
      </trkpt>
      <trkpt lat="43.42073" lon="6.5319">
        <ele>220.33</ele>
        <time>2014-01-26T09:33:27Z</time>
      </trkpt>
      <trkpt lat="43.42059" lon="6.53172">
        <ele>219.83</ele>
        <time>2014-01-26T09:33:30Z</time>
      </trkpt>
      <trkpt lat="43.42049" lon="6.53145">
        <ele>219.36</ele>
        <time>2014-01-26T09:33:34Z</time>
      </trkpt>
      <trkpt lat="43.42042" lon="6.53115">
        <ele>219.33</ele>
        <time>2014-01-26T09:33:38Z</time>
      </trkpt>
      <trkpt lat="43.42028" lon="6.53098">
        <ele>219.33</ele>
        <time>2014-01-26T09:33:41Z</time>
      </trkpt>
      <trkpt lat="43.42013" lon="6.53081">
        <ele>219.33</ele>
        <time>2014-01-26T09:33:44Z</time>
      </trkpt>
      <trkpt lat="43.41995" lon="6.53072">
        <ele>219.33</ele>
        <time>2014-01-26T09:33:47Z</time>
      </trkpt>
      <trkpt lat="43.41973" lon="6.53067">
        <ele>220.08</ele>
        <time>2014-01-26T09:33:50Z</time>
      </trkpt>
      <trkpt lat="43.41948" lon="6.53066">
        <ele>220.8</ele>
        <time>2014-01-26T09:33:53Z</time>
      </trkpt>
      <trkpt lat="43.41925" lon="6.53081">
        <ele>221.77</ele>
        <time>2014-01-26T09:33:56Z</time>
      </trkpt>
      <trkpt lat="43.41901" lon="6.53092">
        <ele>222.26</ele>
        <time>2014-01-26T09:33:59Z</time>
      </trkpt>
      <trkpt lat="43.41879" lon="6.53083">
        <ele>222.32</ele>
        <time>2014-01-26T09:34:02Z</time>
      </trkpt>
      <trkpt lat="43.41861" lon="6.53064">
        <ele>222.33</ele>
        <time>2014-01-26T09:34:05Z</time>
      </trkpt>
      <trkpt lat="43.41842" lon="6.53062">
        <ele>223.08</ele>
        <time>2014-01-26T09:34:08Z</time>
      </trkpt>
      <trkpt lat="43.41824" lon="6.53079">
        <ele>223.32</ele>
        <time>2014-01-26T09:34:12Z</time>
      </trkpt>
      <trkpt lat="43.41807" lon="6.53093">
        <ele>223.33</ele>
        <time>2014-01-26T09:34:17Z</time>
      </trkpt>
      <trkpt lat="43.41786" lon="6.53087">
        <ele>223.83</ele>
        <time>2014-01-26T09:34:22Z</time>
      </trkpt>
      <trkpt lat="43.41767" lon="6.53085">
        <ele>224.33</ele>
        <time>2014-01-26T09:34:32Z</time>
      </trkpt>
      <trkpt lat="43.41748" lon="6.53074">
        <ele>224.33</ele>
        <time>2014-01-26T09:34:41Z</time>
      </trkpt>
      <trkpt lat="43.41729" lon="6.53073">
        <ele>224.33</ele>
        <time>2014-01-26T09:34:48Z</time>
      </trkpt>
      <trkpt lat="43.41712" lon="6.53086">
        <ele>224.33</ele>
        <time>2014-01-26T09:34:56Z</time>
      </trkpt>
      <trkpt lat="43.41694" lon="6.53098">
        <ele>224.33</ele>
        <time>2014-01-26T09:35:04Z</time>
      </trkpt>
      <trkpt lat="43.41676" lon="6.53109">
        <ele>224.83</ele>
        <time>2014-01-26T09:35:12Z</time>
      </trkpt>
      <trkpt lat="43.41656" lon="6.5311">
        <ele>225.33</ele>
        <time>2014-01-26T09:35:19Z</time>
      </trkpt>
      <trkpt lat="43.41639" lon="6.53103">
        <ele>225.33</ele>
        <time>2014-01-26T09:35:25Z</time>
      </trkpt>
      <trkpt lat="43.4162" lon="6.53098">
        <ele>225.33</ele>
        <time>2014-01-26T09:35:32Z</time>
      </trkpt>
      <trkpt lat="43.41603" lon="6.53108">
        <ele>225.33</ele>
        <time>2014-01-26T09:35:40Z</time>
      </trkpt>
      <trkpt lat="43.41587" lon="6.53123">
        <ele>225.33</ele>
        <time>2014-01-26T09:35:48Z</time>
      </trkpt>
      <trkpt lat="43.41569" lon="6.53133">
        <ele>225.33</ele>
        <time>2014-01-26T09:35:56Z</time>
      </trkpt>
      <trkpt lat="43.41552" lon="6.53144">
        <ele>225.33</ele>
        <time>2014-01-26T09:36:03Z</time>
      </trkpt>
      <trkpt lat="43.41537" lon="6.53162">
        <ele>226.08</ele>
        <time>2014-01-26T09:36:11Z</time>
      </trkpt>
      <trkpt lat="43.41525" lon="6.53184">
        <ele>226.33</ele>
        <time>2014-01-26T09:36:19Z</time>
      </trkpt>
      <trkpt lat="43.41508" lon="6.53195">
        <ele>225.83</ele>
        <time>2014-01-26T09:36:27Z</time>
      </trkpt>
      <trkpt lat="43.41487" lon="6.53204">
        <ele>225.33</ele>
        <time>2014-01-26T09:36:38Z</time>
      </trkpt>
      <trkpt lat="43.41474" lon="6.53222">
        <ele>225.33</ele>
        <time>2014-01-26T09:36:46Z</time>
      </trkpt>
      <trkpt lat="43.4146" lon="6.53241">
        <ele>225.33</ele>
        <time>2014-01-26T09:36:54Z</time>
      </trkpt>
      <trkpt lat="43.41449" lon="6.53262">
        <ele>226.32</ele>
        <time>2014-01-26T09:37:01Z</time>
      </trkpt>
      <trkpt lat="43.4144" lon="6.53285">
        <ele>226.33</ele>
        <time>2014-01-26T09:37:08Z</time>
      </trkpt>
      <trkpt lat="43.41438" lon="6.53313">
        <ele>226.33</ele>
        <time>2014-01-26T09:37:16Z</time>
      </trkpt>
      <trkpt lat="43.41442" lon="6.5334">
        <ele>226.33</ele>
        <time>2014-01-26T09:37:22Z</time>
      </trkpt>
      <trkpt lat="43.41441" lon="6.5338">
        <ele>224.83</ele>
        <time>2014-01-26T09:37:28Z</time>
      </trkpt>
      <trkpt lat="43.41445" lon="6.53355">
        <ele>223.08</ele>
        <time>2014-01-26T09:37:29Z</time>
      </trkpt>
      <trkpt lat="43.41449" lon="6.53381">
        <ele>221.33</ele>
        <time>2014-01-26T09:37:42Z</time>
      </trkpt>
      <trkpt lat="43.41442" lon="6.53414">
        <ele>222.3</ele>
        <time>2014-01-26T09:37:53Z</time>
      </trkpt>
      <trkpt lat="43.41429" lon="6.53436">
        <ele>222.33</ele>
        <time>2014-01-26T09:38:02Z</time>
      </trkpt>
      <trkpt lat="43.41414" lon="6.53452">
        <ele>224.83</ele>
        <time>2014-01-26T09:38:24Z</time>
      </trkpt>
      <trkpt lat="43.41397" lon="6.53467">
        <ele>225.33</ele>
        <time>2014-01-26T09:38:38Z</time>
      </trkpt>
      <trkpt lat="43.41391" lon="6.535">
        <ele>225.33</ele>
        <time>2014-01-26T09:38:52Z</time>
      </trkpt>
      <trkpt lat="43.41391" lon="6.5353">
        <ele>225.33</ele>
        <time>2014-01-26T09:39:07Z</time>
      </trkpt>
      <trkpt lat="43.41387" lon="6.53555">
        <ele>225.33</ele>
        <time>2014-01-26T09:39:15Z</time>
      </trkpt>
      <trkpt lat="43.41387" lon="6.5358">
        <ele>226.83</ele>
        <time>2014-01-26T09:39:56Z</time>
      </trkpt>
      <trkpt lat="43.41376" lon="6.53612">
        <ele>228.32</ele>
        <time>2014-01-26T09:40:12Z</time>
      </trkpt>
      <trkpt lat="43.41359" lon="6.5363">
        <ele>229.83</ele>
        <time>2014-01-26T09:40:22Z</time>
      </trkpt>
      <trkpt lat="43.41335" lon="6.53636">
        <ele>230.83</ele>
        <time>2014-01-26T09:40:33Z</time>
      </trkpt>
      <trkpt lat="43.41316" lon="6.53641">
        <ele>231.33</ele>
        <time>2014-01-26T09:40:42Z</time>
      </trkpt>
      <trkpt lat="43.41298" lon="6.5365">
        <ele>232.33</ele>
        <time>2014-01-26T09:40:51Z</time>
      </trkpt>
      <trkpt lat="43.41279" lon="6.53654">
        <ele>232.83</ele>
        <time>2014-01-26T09:41:01Z</time>
      </trkpt>
      <trkpt lat="43.4126" lon="6.5366">
        <ele>233.33</ele>
        <time>2014-01-26T09:41:10Z</time>
      </trkpt>
      <trkpt lat="43.41257" lon="6.5369">
        <ele>234.83</ele>
        <time>2014-01-26T09:41:33Z</time>
      </trkpt>
      <trkpt lat="43.41236" lon="6.53697">
        <ele>236.57</ele>
        <time>2014-01-26T09:41:38Z</time>
      </trkpt>
      <trkpt lat="43.41216" lon="6.53713">
        <ele>238.04</ele>
        <time>2014-01-26T09:41:42Z</time>
      </trkpt>
      <trkpt lat="43.412" lon="6.53729">
        <ele>239.06</ele>
        <time>2014-01-26T09:41:46Z</time>
      </trkpt>
      <trkpt lat="43.41189" lon="6.53752">
        <ele>240.2</ele>
        <time>2014-01-26T09:41:51Z</time>
      </trkpt>
      <trkpt lat="43.41182" lon="6.53779">
        <ele>242.17</ele>
        <time>2014-01-26T09:41:56Z</time>
      </trkpt>
      <trkpt lat="43.41177" lon="6.53803">
        <ele>242.33</ele>
        <time>2014-01-26T09:42:01Z</time>
      </trkpt>
      <trkpt lat="43.41168" lon="6.53828">
        <ele>242.33</ele>
        <time>2014-01-26T09:42:07Z</time>
      </trkpt>
      <trkpt lat="43.41156" lon="6.53847">
        <ele>242.33</ele>
        <time>2014-01-26T09:42:13Z</time>
      </trkpt>
      <trkpt lat="43.4114" lon="6.53861">
        <ele>243.32</ele>
        <time>2014-01-26T09:42:19Z</time>
      </trkpt>
      <trkpt lat="43.41121" lon="6.53872">
        <ele>243.33</ele>
        <time>2014-01-26T09:42:23Z</time>
      </trkpt>
      <trkpt lat="43.41102" lon="6.53874">
        <ele>242.46</ele>
        <time>2014-01-26T09:42:26Z</time>
      </trkpt>
      <trkpt lat="43.41083" lon="6.53878">
        <ele>242.35</ele>
        <time>2014-01-26T09:42:29Z</time>
      </trkpt>
      <trkpt lat="43.41068" lon="6.53897">
        <ele>242.33</ele>
        <time>2014-01-26T09:42:33Z</time>
      </trkpt>
      <trkpt lat="43.41054" lon="6.53919">
        <ele>242.33</ele>
        <time>2014-01-26T09:42:37Z</time>
      </trkpt>
      <trkpt lat="43.4104" lon="6.53936">
        <ele>243.08</ele>
        <time>2014-01-26T09:42:41Z</time>
      </trkpt>
      <trkpt lat="43.41021" lon="6.53945">
        <ele>243.32</ele>
        <time>2014-01-26T09:42:45Z</time>
      </trkpt>
      <trkpt lat="43.41002" lon="6.53942">
        <ele>243.33</ele>
        <time>2014-01-26T09:42:48Z</time>
      </trkpt>
      <trkpt lat="43.40982" lon="6.53943">
        <ele>244.08</ele>
        <time>2014-01-26T09:42:51Z</time>
      </trkpt>
      <trkpt lat="43.40964" lon="6.53953">
        <ele>243.8</ele>
        <time>2014-01-26T09:42:54Z</time>
      </trkpt>
      <trkpt lat="43.40946" lon="6.53969">
        <ele>243.86</ele>
        <time>2014-01-26T09:42:58Z</time>
      </trkpt>
      <trkpt lat="43.40935" lon="6.53994">
        <ele>244.82</ele>
        <time>2014-01-26T09:43:03Z</time>
      </trkpt>
      <trkpt lat="43.40948" lon="6.54017">
        <ele>246.26</ele>
        <time>2014-01-26T09:43:09Z</time>
      </trkpt>
      <trkpt lat="43.40961" lon="6.54037">
        <ele>247.27</ele>
        <time>2014-01-26T09:43:13Z</time>
      </trkpt>
      <trkpt lat="43.40975" lon="6.54061">
        <ele>247.33</ele>
        <time>2014-01-26T09:43:17Z</time>
      </trkpt>
      <trkpt lat="43.40988" lon="6.5408">
        <ele>247.83</ele>
        <time>2014-01-26T09:43:20Z</time>
      </trkpt>
      <trkpt lat="43.41002" lon="6.541">
        <ele>248.27</ele>
        <time>2014-01-26T09:43:23Z</time>
      </trkpt>
      <trkpt lat="43.41017" lon="6.54122">
        <ele>248.33</ele>
        <time>2014-01-26T09:43:26Z</time>
      </trkpt>
      <trkpt lat="43.41034" lon="6.5414">
        <ele>248.33</ele>
        <time>2014-01-26T09:43:29Z</time>
      </trkpt>
      <trkpt lat="43.41048" lon="6.54162">
        <ele>248.33</ele>
        <time>2014-01-26T09:43:32Z</time>
      </trkpt>
      <trkpt lat="43.41063" lon="6.5418">
        <ele>248.33</ele>
        <time>2014-01-26T09:43:35Z</time>
      </trkpt>
      <trkpt lat="43.41079" lon="6.54198">
        <ele>247.46</ele>
        <time>2014-01-26T09:43:38Z</time>
      </trkpt>
      <trkpt lat="43.411" lon="6.54212">
        <ele>247.34</ele>
        <time>2014-01-26T09:43:42Z</time>
      </trkpt>
      <trkpt lat="43.41118" lon="6.54227">
        <ele>246.58</ele>
        <time>2014-01-26T09:43:46Z</time>
      </trkpt>
      <trkpt lat="43.41134" lon="6.54246">
        <ele>246.35</ele>
        <time>2014-01-26T09:43:50Z</time>
      </trkpt>
      <trkpt lat="43.4115" lon="6.54265">
        <ele>245.4</ele>
        <time>2014-01-26T09:43:54Z</time>
      </trkpt>
      <trkpt lat="43.41162" lon="6.54285">
        <ele>244.46</ele>
        <time>2014-01-26T09:43:58Z</time>
      </trkpt>
      <trkpt lat="43.41157" lon="6.54311">
        <ele>244.34</ele>
        <time>2014-01-26T09:44:04Z</time>
      </trkpt>
      <trkpt lat="43.41136" lon="6.54315">
        <ele>245.58</ele>
        <time>2014-01-26T09:44:13Z</time>
      </trkpt>
      <trkpt lat="43.41118" lon="6.54318">
        <ele>246.32</ele>
        <time>2014-01-26T09:44:19Z</time>
      </trkpt>
      <trkpt lat="43.411" lon="6.54336">
        <ele>248.02</ele>
        <time>2014-01-26T09:44:23Z</time>
      </trkpt>
      <trkpt lat="43.41085" lon="6.54353">
        <ele>248.31</ele>
        <time>2014-01-26T09:44:27Z</time>
      </trkpt>
      <trkpt lat="43.4107" lon="6.54369">
        <ele>248.33</ele>
        <time>2014-01-26T09:44:31Z</time>
      </trkpt>
      <trkpt lat="43.41049" lon="6.54376">
        <ele>247.4</ele>
        <time>2014-01-26T09:44:36Z</time>
      </trkpt>
      <trkpt lat="43.41027" lon="6.54382">
        <ele>248.27</ele>
        <time>2014-01-26T09:44:41Z</time>
      </trkpt>
      <trkpt lat="43.41016" lon="6.54402">
        <ele>249.8</ele>
        <time>2014-01-26T09:44:46Z</time>
      </trkpt>
      <trkpt lat="43.41003" lon="6.5442">
        <ele>250.32</ele>
        <time>2014-01-26T09:44:51Z</time>
      </trkpt>
      <trkpt lat="43.40982" lon="6.54415">
        <ele>250.33</ele>
        <time>2014-01-26T09:44:56Z</time>
      </trkpt>
      <trkpt lat="43.40963" lon="6.54405">
        <ele>250.33</ele>
        <time>2014-01-26T09:45:00Z</time>
      </trkpt>
      <trkpt lat="43.40946" lon="6.54396">
        <ele>249.4</ele>
        <time>2014-01-26T09:45:04Z</time>
      </trkpt>
      <trkpt lat="43.40926" lon="6.54387">
        <ele>248.46</ele>
        <time>2014-01-26T09:45:09Z</time>
      </trkpt>
      <trkpt lat="43.40906" lon="6.54373">
        <ele>248.34</ele>
        <time>2014-01-26T09:45:14Z</time>
      </trkpt>
      <trkpt lat="43.40897" lon="6.54351">
        <ele>249.27</ele>
        <time>2014-01-26T09:45:18Z</time>
      </trkpt>
      <trkpt lat="43.40893" lon="6.54321">
        <ele>247.61</ele>
        <time>2014-01-26T09:45:23Z</time>
      </trkpt>
      <trkpt lat="43.40898" lon="6.54297">
        <ele>246.6</ele>
        <time>2014-01-26T09:45:27Z</time>
      </trkpt>
      <trkpt lat="43.40899" lon="6.54268">
        <ele>245.4</ele>
        <time>2014-01-26T09:45:33Z</time>
      </trkpt>
      <trkpt lat="43.40893" lon="6.54244">
        <ele>245.33</ele>
        <time>2014-01-26T09:45:39Z</time>
      </trkpt>
      <trkpt lat="43.40881" lon="6.54221">
        <ele>245.33</ele>
        <time>2014-01-26T09:45:46Z</time>
      </trkpt>
      <trkpt lat="43.40867" lon="6.542">
        <ele>244.36</ele>
        <time>2014-01-26T09:45:53Z</time>
      </trkpt>
      <trkpt lat="43.40853" lon="6.5418">
        <ele>244.33</ele>
        <time>2014-01-26T09:45:59Z</time>
      </trkpt>
      <trkpt lat="43.40839" lon="6.54163">
        <ele>245.27</ele>
        <time>2014-01-26T09:46:06Z</time>
      </trkpt>
      <trkpt lat="43.40823" lon="6.54149">
        <ele>245.33</ele>
        <time>2014-01-26T09:46:13Z</time>
      </trkpt>
      <trkpt lat="43.40798" lon="6.54133">
        <ele>245.33</ele>
        <time>2014-01-26T09:46:26Z</time>
      </trkpt>
      <trkpt lat="43.40782" lon="6.54121">
        <ele>245.33</ele>
        <time>2014-01-26T09:46:31Z</time>
      </trkpt>
      <trkpt lat="43.40764" lon="6.54113">
        <ele>246.08</ele>
        <time>2014-01-26T09:46:34Z</time>
      </trkpt>
      <trkpt lat="43.40744" lon="6.54107">
        <ele>246.3</ele>
        <time>2014-01-26T09:46:37Z</time>
      </trkpt>
      <trkpt lat="43.40723" lon="6.54097">
        <ele>246.33</ele>
        <time>2014-01-26T09:46:41Z</time>
      </trkpt>
      <trkpt lat="43.40703" lon="6.54084">
        <ele>246.33</ele>
        <time>2014-01-26T09:46:45Z</time>
      </trkpt>
      <trkpt lat="43.40683" lon="6.54092">
        <ele>246.33</ele>
        <time>2014-01-26T09:46:49Z</time>
      </trkpt>
      <trkpt lat="43.40667" lon="6.54106">
        <ele>246.33</ele>
        <time>2014-01-26T09:46:52Z</time>
      </trkpt>
      <trkpt lat="43.4065" lon="6.54115">
        <ele>246.33</ele>
        <time>2014-01-26T09:46:55Z</time>
      </trkpt>
      <trkpt lat="43.40629" lon="6.54118">
        <ele>245.83</ele>
        <time>2014-01-26T09:46:59Z</time>
      </trkpt>
      <trkpt lat="43.40605" lon="6.54131">
        <ele>244.9</ele>
        <time>2014-01-26T09:47:02Z</time>
      </trkpt>
      <trkpt lat="43.40587" lon="6.54142">
        <ele>243.65</ele>
        <time>2014-01-26T09:47:05Z</time>
      </trkpt>
      <trkpt lat="43.40566" lon="6.54144">
        <ele>242.62</ele>
        <time>2014-01-26T09:47:08Z</time>
      </trkpt>
      <trkpt lat="43.40548" lon="6.54155">
        <ele>240.98</ele>
        <time>2014-01-26T09:47:12Z</time>
      </trkpt>
      <trkpt lat="43.40549" lon="6.54181">
        <ele>239.62</ele>
        <time>2014-01-26T09:47:16Z</time>
      </trkpt>
      <trkpt lat="43.40553" lon="6.54206">
        <ele>238.62</ele>
        <time>2014-01-26T09:47:19Z</time>
      </trkpt>
      <trkpt lat="43.40557" lon="6.54231">
        <ele>236.99</ele>
        <time>2014-01-26T09:47:22Z</time>
      </trkpt>
      <trkpt lat="43.4056" lon="6.54255">
        <ele>235.67</ele>
        <time>2014-01-26T09:47:25Z</time>
      </trkpt>
      <trkpt lat="43.40563" lon="6.54287">
        <ele>234.85</ele>
        <time>2014-01-26T09:47:29Z</time>
      </trkpt>
      <trkpt lat="43.4057" lon="6.54313">
        <ele>234.4</ele>
        <time>2014-01-26T09:47:32Z</time>
      </trkpt>
      <trkpt lat="43.40575" lon="6.54341">
        <ele>234.34</ele>
        <time>2014-01-26T09:47:35Z</time>
      </trkpt>
      <trkpt lat="43.40578" lon="6.54366">
        <ele>234.33</ele>
        <time>2014-01-26T09:47:38Z</time>
      </trkpt>
      <trkpt lat="43.40574" lon="6.54393">
        <ele>233.58</ele>
        <time>2014-01-26T09:47:41Z</time>
      </trkpt>
      <trkpt lat="43.40565" lon="6.54421">
        <ele>231.36</ele>
        <time>2014-01-26T09:47:44Z</time>
      </trkpt>
      <trkpt lat="43.4056" lon="6.54446">
        <ele>229.71</ele>
        <time>2014-01-26T09:47:47Z</time>
      </trkpt>
      <trkpt lat="43.40554" lon="6.54476">
        <ele>227.04</ele>
        <time>2014-01-26T09:47:51Z</time>
      </trkpt>
      <trkpt lat="43.40543" lon="6.54503">
        <ele>222.44</ele>
        <time>2014-01-26T09:47:55Z</time>
      </trkpt>
      <trkpt lat="43.40526" lon="6.54519">
        <ele>220.03</ele>
        <time>2014-01-26T09:47:59Z</time>
      </trkpt>
      <trkpt lat="43.40509" lon="6.54541">
        <ele>219.38</ele>
        <time>2014-01-26T09:48:03Z</time>
      </trkpt>
      <trkpt lat="43.40496" lon="6.54559">
        <ele>219.34</ele>
        <time>2014-01-26T09:48:06Z</time>
      </trkpt>
      <trkpt lat="43.40478" lon="6.54575">
        <ele>220.96</ele>
        <time>2014-01-26T09:48:09Z</time>
      </trkpt>
      <trkpt lat="43.40457" lon="6.54587">
        <ele>222.04</ele>
        <time>2014-01-26T09:48:12Z</time>
      </trkpt>
      <trkpt lat="43.40464" lon="6.54611">
        <ele>220.21</ele>
        <time>2014-01-26T09:48:20Z</time>
      </trkpt>
      <trkpt lat="43.40484" lon="6.54627">
        <ele>216.08</ele>
        <time>2014-01-26T09:48:24Z</time>
      </trkpt>
      <trkpt lat="43.40504" lon="6.54639">
        <ele>212.76</ele>
        <time>2014-01-26T09:48:29Z</time>
      </trkpt>
      <trkpt lat="43.40524" lon="6.5464">
        <ele>208.07</ele>
        <time>2014-01-26T09:48:35Z</time>
      </trkpt>
      <trkpt lat="43.40546" lon="6.54633">
        <ele>202.38</ele>
        <time>2014-01-26T09:48:41Z</time>
      </trkpt>
      <trkpt lat="43.40566" lon="6.54636">
        <ele>198.4</ele>
        <time>2014-01-26T09:48:47Z</time>
      </trkpt>
      <trkpt lat="43.4058" lon="6.54657">
        <ele>197.58</ele>
        <time>2014-01-26T09:48:55Z</time>
      </trkpt>
      <trkpt lat="43.40593" lon="6.54677">
        <ele>195.53</ele>
        <time>2014-01-26T09:49:00Z</time>
      </trkpt>
      <trkpt lat="43.40613" lon="6.5468">
        <ele>179.06</ele>
        <time>2014-01-26T09:49:05Z</time>
      </trkpt>
      <trkpt lat="43.40628" lon="6.54663">
        <ele>163.57</ele>
        <time>2014-01-26T09:49:10Z</time>
      </trkpt>
      <trkpt lat="43.40641" lon="6.54644">
        <ele>160.54</ele>
        <time>2014-01-26T09:49:14Z</time>
      </trkpt>
      <trkpt lat="43.40658" lon="6.54629">
        <ele>160.35</ele>
        <time>2014-01-26T09:49:18Z</time>
      </trkpt>
      <trkpt lat="43.40653" lon="6.54654">
        <ele>159.4</ele>
        <time>2014-01-26T09:49:22Z</time>
      </trkpt>
      <trkpt lat="43.40649" lon="6.54679">
        <ele>158.09</ele>
        <time>2014-01-26T09:49:26Z</time>
      </trkpt>
      <trkpt lat="43.40646" lon="6.54703">
        <ele>157.36</ele>
        <time>2014-01-26T09:49:31Z</time>
      </trkpt>
      <trkpt lat="43.40646" lon="6.54736">
        <ele>154.74</ele>
        <time>2014-01-26T09:49:37Z</time>
      </trkpt>
      <trkpt lat="43.40635" lon="6.54758">
        <ele>153.41</ele>
        <time>2014-01-26T09:49:42Z</time>
      </trkpt>
      <trkpt lat="43.40616" lon="6.5477">
        <ele>152.46</ele>
        <time>2014-01-26T09:49:47Z</time>
      </trkpt>
      <trkpt lat="43.40595" lon="6.54777">
        <ele>151.59</ele>
        <time>2014-01-26T09:49:51Z</time>
      </trkpt>
      <trkpt lat="43.40576" lon="6.54777">
        <ele>149.66</ele>
        <time>2014-01-26T09:49:55Z</time>
      </trkpt>
      <trkpt lat="43.40559" lon="6.54785">
        <ele>148.83</ele>
        <time>2014-01-26T09:50:03Z</time>
      </trkpt>
      <trkpt lat="43.4054" lon="6.54785">
        <ele>145.33</ele>
        <time>2014-01-26T09:50:25Z</time>
      </trkpt>
      <trkpt lat="43.40531" lon="6.54806">
        <ele>141.85</ele>
        <time>2014-01-26T09:50:36Z</time>
      </trkpt>
      <trkpt lat="43.40515" lon="6.54824">
        <ele>139.84</ele>
        <time>2014-01-26T09:50:48Z</time>
      </trkpt>
      <trkpt lat="43.40501" lon="6.5484">
        <ele>138.83</ele>
        <time>2014-01-26T09:51:01Z</time>
      </trkpt>
      <trkpt lat="43.40574" lon="6.5489">
        <ele>138.4</ele>
        <time>2014-01-26T09:51:14Z</time>
      </trkpt>
      <trkpt lat="43.40547" lon="6.54891">
        <ele>138.34</ele>
        <time>2014-01-26T09:51:17Z</time>
      </trkpt>
      <trkpt lat="43.40573" lon="6.54925">
        <ele>138.33</ele>
        <time>2014-01-26T09:51:30Z</time>
      </trkpt>
      <trkpt lat="43.40596" lon="6.55012">
        <ele>137.33</ele>
        <time>2014-01-26T09:51:44Z</time>
      </trkpt>
      <trkpt lat="43.40571" lon="6.54998">
        <ele>134.33</ele>
        <time>2014-01-26T09:51:46Z</time>
      </trkpt>
      <trkpt lat="43.40554" lon="6.54988">
        <ele>133.46</ele>
        <time>2014-01-26T09:51:49Z</time>
      </trkpt>
      <trkpt lat="43.40533" lon="6.54993">
        <ele>132.83</ele>
        <time>2014-01-26T09:52:00Z</time>
      </trkpt>
      <trkpt lat="43.4051" lon="6.54981">
        <ele>131.36</ele>
        <time>2014-01-26T09:52:17Z</time>
      </trkpt>
      <trkpt lat="43.40493" lon="6.54996">
        <ele>131.33</ele>
        <time>2014-01-26T09:52:33Z</time>
      </trkpt>
      <trkpt lat="43.40481" lon="6.55016">
        <ele>130.34</ele>
        <time>2014-01-26T09:52:46Z</time>
      </trkpt>
      <trkpt lat="43.40476" lon="6.55041">
        <ele>129.35</ele>
        <time>2014-01-26T09:52:56Z</time>
      </trkpt>
      <trkpt lat="43.40488" lon="6.5506">
        <ele>129.33</ele>
        <time>2014-01-26T09:53:06Z</time>
      </trkpt>
      <trkpt lat="43.40498" lon="6.55083">
        <ele>128.35</ele>
        <time>2014-01-26T09:53:17Z</time>
      </trkpt>
      <trkpt lat="43.40507" lon="6.55109">
        <ele>128.33</ele>
        <time>2014-01-26T09:53:35Z</time>
      </trkpt>
      <trkpt lat="43.40502" lon="6.55134">
        <ele>128.33</ele>
        <time>2014-01-26T09:53:42Z</time>
      </trkpt>
      <trkpt lat="43.40485" lon="6.55159">
        <ele>128.33</ele>
        <time>2014-01-26T09:53:54Z</time>
      </trkpt>
      <trkpt lat="43.40485" lon="6.55186">
        <ele>127.36</ele>
        <time>2014-01-26T09:54:00Z</time>
      </trkpt>
      <trkpt lat="43.40484" lon="6.55215">
        <ele>127.33</ele>
        <time>2014-01-26T09:54:12Z</time>
      </trkpt>
      <trkpt lat="43.40489" lon="6.55251">
        <ele>127.33</ele>
        <time>2014-01-26T09:54:33Z</time>
      </trkpt>
      <trkpt lat="43.40485" lon="6.55276">
        <ele>127.33</ele>
        <time>2014-01-26T09:54:37Z</time>
      </trkpt>
      <trkpt lat="43.40474" lon="6.55296">
        <ele>127.33</ele>
        <time>2014-01-26T09:54:42Z</time>
      </trkpt>
      <trkpt lat="43.40455" lon="6.55297">
        <ele>127.33</ele>
        <time>2014-01-26T09:54:49Z</time>
      </trkpt>
      <trkpt lat="43.40436" lon="6.5529">
        <ele>127.33</ele>
        <time>2014-01-26T09:54:58Z</time>
      </trkpt>
      <trkpt lat="43.40416" lon="6.55285">
        <ele>127.33</ele>
        <time>2014-01-26T09:55:07Z</time>
      </trkpt>
      <trkpt lat="43.40397" lon="6.55283">
        <ele>128.3</ele>
        <time>2014-01-26T09:55:17Z</time>
      </trkpt>
      <trkpt lat="43.40413" lon="6.55295">
        <ele>129.8</ele>
        <time>2014-01-26T09:55:32Z</time>
      </trkpt>
      <trkpt lat="43.40429" lon="6.55307">
        <ele>130.33</ele>
        <time>2014-01-26T09:55:40Z</time>
      </trkpt>
      <trkpt lat="43.4045" lon="6.55331">
        <ele>131.33</ele>
        <time>2014-01-26T09:55:53Z</time>
      </trkpt>
      <trkpt lat="43.40463" lon="6.55349">
        <ele>132.27</ele>
        <time>2014-01-26T09:56:01Z</time>
      </trkpt>
      <trkpt lat="43.40478" lon="6.55365">
        <ele>132.33</ele>
        <time>2014-01-26T09:56:10Z</time>
      </trkpt>
      <trkpt lat="43.40488" lon="6.55386">
        <ele>132.33</ele>
        <time>2014-01-26T09:56:20Z</time>
      </trkpt>
      <trkpt lat="43.40497" lon="6.5541">
        <ele>132.33</ele>
        <time>2014-01-26T09:56:28Z</time>
      </trkpt>
      <trkpt lat="43.4051" lon="6.55429">
        <ele>132.33</ele>
        <time>2014-01-26T09:56:36Z</time>
      </trkpt>
      <trkpt lat="43.40523" lon="6.55448">
        <ele>132.33</ele>
        <time>2014-01-26T09:56:44Z</time>
      </trkpt>
      <trkpt lat="43.40537" lon="6.55467">
        <ele>133.33</ele>
        <time>2014-01-26T09:56:52Z</time>
      </trkpt>
      <trkpt lat="43.40548" lon="6.55495">
        <ele>133.33</ele>
        <time>2014-01-26T09:57:04Z</time>
      </trkpt>
      <trkpt lat="43.40539" lon="6.55517">
        <ele>133.33</ele>
        <time>2014-01-26T09:57:12Z</time>
      </trkpt>
      <trkpt lat="43.40528" lon="6.55539">
        <ele>133.33</ele>
        <time>2014-01-26T09:57:20Z</time>
      </trkpt>
      <trkpt lat="43.40522" lon="6.55566">
        <ele>134.08</ele>
        <time>2014-01-26T09:57:28Z</time>
      </trkpt>
      <trkpt lat="43.40517" lon="6.55601">
        <ele>134.83</ele>
        <time>2014-01-26T09:57:41Z</time>
      </trkpt>
      <trkpt lat="43.40507" lon="6.55626">
        <ele>135.33</ele>
        <time>2014-01-26T09:57:50Z</time>
      </trkpt>
      <trkpt lat="43.40503" lon="6.55653">
        <ele>136.82</ele>
        <time>2014-01-26T09:58:00Z</time>
      </trkpt>
      <trkpt lat="43.40496" lon="6.5568">
        <ele>138.32</ele>
        <time>2014-01-26T09:58:10Z</time>
      </trkpt>
      <trkpt lat="43.40493" lon="6.55707">
        <ele>139.32</ele>
        <time>2014-01-26T09:58:18Z</time>
      </trkpt>
      <trkpt lat="43.40496" lon="6.55733">
        <ele>140.33</ele>
        <time>2014-01-26T09:58:26Z</time>
      </trkpt>
      <trkpt lat="43.40505" lon="6.55758">
        <ele>141.27</ele>
        <time>2014-01-26T09:58:32Z</time>
      </trkpt>
      <trkpt lat="43.40521" lon="6.55769">
        <ele>141.33</ele>
        <time>2014-01-26T09:58:37Z</time>
      </trkpt>
      <trkpt lat="43.40537" lon="6.55783">
        <ele>143.02</ele>
        <time>2014-01-26T09:58:41Z</time>
      </trkpt>
      <trkpt lat="43.40554" lon="6.55791">
        <ele>144.04</ele>
        <time>2014-01-26T09:58:44Z</time>
      </trkpt>
      <trkpt lat="43.4057" lon="6.55809">
        <ele>144.31</ele>
        <time>2014-01-26T09:58:48Z</time>
      </trkpt>
      <trkpt lat="43.4059" lon="6.55814">
        <ele>143.33</ele>
        <time>2014-01-26T09:58:59Z</time>
      </trkpt>
      <trkpt lat="43.40611" lon="6.55793">
        <ele>145.82</ele>
        <time>2014-01-26T09:59:13Z</time>
      </trkpt>
      <trkpt lat="43.4063" lon="6.55786">
        <ele>146.83</ele>
        <time>2014-01-26T09:59:22Z</time>
      </trkpt>
      <trkpt lat="43.40644" lon="6.55805">
        <ele>153.21</ele>
        <time>2014-01-26T10:02:23Z</time>
      </trkpt>
      <trkpt lat="43.40656" lon="6.55827">
        <ele>154.82</ele>
        <time>2014-01-26T10:02:30Z</time>
      </trkpt>
      <trkpt lat="43.40668" lon="6.55853">
        <ele>155.83</ele>
        <time>2014-01-26T10:02:40Z</time>
      </trkpt>
      <trkpt lat="43.40673" lon="6.55886">
        <ele>157.3</ele>
        <time>2014-01-26T10:02:52Z</time>
      </trkpt>
      <trkpt lat="43.4067" lon="6.55921">
        <ele>158.33</ele>
        <time>2014-01-26T10:03:04Z</time>
      </trkpt>
      <trkpt lat="43.40662" lon="6.55944">
        <ele>159.82</ele>
        <time>2014-01-26T10:03:14Z</time>
      </trkpt>
      <trkpt lat="43.40657" lon="6.5597">
        <ele>161.32</ele>
        <time>2014-01-26T10:03:25Z</time>
      </trkpt>
      <trkpt lat="43.40657" lon="6.55997">
        <ele>162.83</ele>
        <time>2014-01-26T10:03:38Z</time>
      </trkpt>
      <trkpt lat="43.40659" lon="6.56023">
        <ele>164.33</ele>
        <time>2014-01-26T10:03:52Z</time>
      </trkpt>
      <trkpt lat="43.40667" lon="6.56046">
        <ele>165.33</ele>
        <time>2014-01-26T10:04:00Z</time>
      </trkpt>
      <trkpt lat="43.40674" lon="6.5607">
        <ele>167.21</ele>
        <time>2014-01-26T10:04:10Z</time>
      </trkpt>
      <trkpt lat="43.40679" lon="6.56095">
        <ele>168.32</ele>
        <time>2014-01-26T10:04:20Z</time>
      </trkpt>
      <trkpt lat="43.40681" lon="6.56119">
        <ele>169.32</ele>
        <time>2014-01-26T10:04:31Z</time>
      </trkpt>
      <trkpt lat="43.40684" lon="6.56144">
        <ele>170.32</ele>
        <time>2014-01-26T10:04:42Z</time>
      </trkpt>
      <trkpt lat="43.40687" lon="6.56169">
        <ele>171.33</ele>
        <time>2014-01-26T10:04:53Z</time>
      </trkpt>
      <trkpt lat="43.40691" lon="6.56197">
        <ele>172.21</ele>
        <time>2014-01-26T10:05:01Z</time>
      </trkpt>
      <trkpt lat="43.40705" lon="6.56217">
        <ele>172.33</ele>
        <time>2014-01-26T10:05:08Z</time>
      </trkpt>
      <trkpt lat="43.40719" lon="6.56235">
        <ele>173.33</ele>
        <time>2014-01-26T10:05:16Z</time>
      </trkpt>
      <trkpt lat="43.40732" lon="6.56257">
        <ele>174.33</ele>
        <time>2014-01-26T10:05:24Z</time>
      </trkpt>
      <trkpt lat="43.40743" lon="6.56279">
        <ele>176.55</ele>
        <time>2014-01-26T10:05:29Z</time>
      </trkpt>
      <trkpt lat="43.40753" lon="6.563">
        <ele>179.36</ele>
        <time>2014-01-26T10:05:32Z</time>
      </trkpt>
      <trkpt lat="43.4076" lon="6.56323">
        <ele>181.02</ele>
        <time>2014-01-26T10:05:36Z</time>
      </trkpt>
      <trkpt lat="43.40773" lon="6.56342">
        <ele>181.31</ele>
        <time>2014-01-26T10:05:40Z</time>
      </trkpt>
      <trkpt lat="43.40787" lon="6.56362">
        <ele>182.27</ele>
        <time>2014-01-26T10:05:45Z</time>
      </trkpt>
      <trkpt lat="43.40797" lon="6.56385">
        <ele>183.32</ele>
        <time>2014-01-26T10:05:51Z</time>
      </trkpt>
      <trkpt lat="43.40812" lon="6.56406">
        <ele>183.33</ele>
        <time>2014-01-26T10:05:58Z</time>
      </trkpt>
      <trkpt lat="43.40832" lon="6.56418">
        <ele>183.33</ele>
        <time>2014-01-26T10:06:04Z</time>
      </trkpt>
      <trkpt lat="43.40849" lon="6.56427">
        <ele>183.33</ele>
        <time>2014-01-26T10:06:08Z</time>
      </trkpt>
      <trkpt lat="43.40866" lon="6.56439">
        <ele>184.27</ele>
        <time>2014-01-26T10:06:13Z</time>
      </trkpt>
      <trkpt lat="43.40882" lon="6.56451">
        <ele>184.33</ele>
        <time>2014-01-26T10:06:18Z</time>
      </trkpt>
      <trkpt lat="43.4089" lon="6.56476">
        <ele>185.32</ele>
        <time>2014-01-26T10:06:24Z</time>
      </trkpt>
      <trkpt lat="43.40895" lon="6.56503">
        <ele>187.71</ele>
        <time>2014-01-26T10:06:29Z</time>
      </trkpt>
      <trkpt lat="43.40879" lon="6.56481">
        <ele>193.77</ele>
        <time>2014-01-26T10:07:42Z</time>
      </trkpt>
      <trkpt lat="43.40871" lon="6.56452">
        <ele>195.83</ele>
        <time>2014-01-26T10:07:54Z</time>
      </trkpt>
      <trkpt lat="43.40854" lon="6.5644">
        <ele>197.83</ele>
        <time>2014-01-26T10:08:06Z</time>
      </trkpt>
      <trkpt lat="43.40827" lon="6.56444">
        <ele>201.82</ele>
        <time>2014-01-26T10:08:24Z</time>
      </trkpt>
      <trkpt lat="43.4081" lon="6.56439">
        <ele>203.83</ele>
        <time>2014-01-26T10:08:41Z</time>
      </trkpt>
      <trkpt lat="43.40793" lon="6.56428">
        <ele>206.3</ele>
        <time>2014-01-26T10:09:02Z</time>
      </trkpt>
      <trkpt lat="43.40775" lon="6.56414">
        <ele>206.33</ele>
        <time>2014-01-26T10:09:10Z</time>
      </trkpt>
      <trkpt lat="43.40761" lon="6.56395">
        <ele>206.33</ele>
        <time>2014-01-26T10:09:20Z</time>
      </trkpt>
      <trkpt lat="43.40744" lon="6.56383">
        <ele>207.33</ele>
        <time>2014-01-26T10:09:32Z</time>
      </trkpt>
      <trkpt lat="43.40724" lon="6.56366">
        <ele>207.33</ele>
        <time>2014-01-26T10:09:45Z</time>
      </trkpt>
      <trkpt lat="43.40713" lon="6.56346">
        <ele>208.21</ele>
        <time>2014-01-26T10:09:49Z</time>
      </trkpt>
      <trkpt lat="43.40691" lon="6.56309">
        <ele>211.33</ele>
        <time>2014-01-26T10:11:02Z</time>
      </trkpt>
      <trkpt lat="43.40677" lon="6.56287">
        <ele>212.58</ele>
        <time>2014-01-26T10:11:04Z</time>
      </trkpt>
      <trkpt lat="43.40659" lon="6.56267">
        <ele>213.79</ele>
        <time>2014-01-26T10:11:08Z</time>
      </trkpt>
      <trkpt lat="43.40642" lon="6.56251">
        <ele>215.26</ele>
        <time>2014-01-26T10:11:14Z</time>
      </trkpt>
      <trkpt lat="43.40624" lon="6.56239">
        <ele>216.77</ele>
        <time>2014-01-26T10:11:21Z</time>
      </trkpt>
      <trkpt lat="43.40602" lon="6.56229">
        <ele>217.82</ele>
        <time>2014-01-26T10:11:27Z</time>
      </trkpt>
      <trkpt lat="43.40582" lon="6.56233">
        <ele>219.08</ele>
        <time>2014-01-26T10:11:33Z</time>
      </trkpt>
      <trkpt lat="43.40563" lon="6.56236">
        <ele>220.27</ele>
        <time>2014-01-26T10:11:41Z</time>
      </trkpt>
      <trkpt lat="43.40545" lon="6.5623">
        <ele>221.33</ele>
        <time>2014-01-26T10:11:50Z</time>
      </trkpt>
      <trkpt lat="43.40555" lon="6.56251">
        <ele>225.19</ele>
        <time>2014-01-26T10:12:06Z</time>
      </trkpt>
      <trkpt lat="43.40571" lon="6.56261">
        <ele>228.05</ele>
        <time>2014-01-26T10:12:15Z</time>
      </trkpt>
      <trkpt lat="43.40586" lon="6.56278">
        <ele>230.27</ele>
        <time>2014-01-26T10:12:25Z</time>
      </trkpt>
      <trkpt lat="43.40596" lon="6.56298">
        <ele>232.82</ele>
        <time>2014-01-26T10:12:36Z</time>
      </trkpt>
      <trkpt lat="43.40604" lon="6.56322">
        <ele>235.2</ele>
        <time>2014-01-26T10:12:48Z</time>
      </trkpt>
      <trkpt lat="43.40614" lon="6.56343">
        <ele>237.08</ele>
        <time>2014-01-26T10:13:00Z</time>
      </trkpt>
      <trkpt lat="43.40632" lon="6.56351">
        <ele>238.27</ele>
        <time>2014-01-26T10:13:09Z</time>
      </trkpt>
      <trkpt lat="43.4065" lon="6.56361">
        <ele>240.2</ele>
        <time>2014-01-26T10:13:18Z</time>
      </trkpt>
      <trkpt lat="43.40662" lon="6.56383">
        <ele>242.2</ele>
        <time>2014-01-26T10:13:27Z</time>
      </trkpt>
      <trkpt lat="43.40673" lon="6.56403">
        <ele>244.07</ele>
        <time>2014-01-26T10:13:35Z</time>
      </trkpt>
      <trkpt lat="43.40682" lon="6.56425">
        <ele>246.07</ele>
        <time>2014-01-26T10:13:44Z</time>
      </trkpt>
      <trkpt lat="43.40693" lon="6.56448">
        <ele>248.07</ele>
        <time>2014-01-26T10:13:54Z</time>
      </trkpt>
      <trkpt lat="43.40704" lon="6.5647">
        <ele>249.3</ele>
        <time>2014-01-26T10:14:03Z</time>
      </trkpt>
      <trkpt lat="43.40717" lon="6.56488">
        <ele>251.08</ele>
        <time>2014-01-26T10:14:11Z</time>
      </trkpt>
      <trkpt lat="43.40728" lon="6.56509">
        <ele>253.2</ele>
        <time>2014-01-26T10:14:20Z</time>
      </trkpt>
      <trkpt lat="43.4073" lon="6.56534">
        <ele>255.07</ele>
        <time>2014-01-26T10:14:28Z</time>
      </trkpt>
      <trkpt lat="43.40727" lon="6.5656">
        <ele>256.27</ele>
        <time>2014-01-26T10:14:36Z</time>
      </trkpt>
      <trkpt lat="43.40726" lon="6.56585">
        <ele>257.32</ele>
        <time>2014-01-26T10:14:44Z</time>
      </trkpt>
      <trkpt lat="43.40718" lon="6.56608">
        <ele>259.08</ele>
        <time>2014-01-26T10:14:54Z</time>
      </trkpt>
      <trkpt lat="43.40705" lon="6.56625">
        <ele>260.3</ele>
        <time>2014-01-26T10:15:03Z</time>
      </trkpt>
      <trkpt lat="43.40696" lon="6.56648">
        <ele>262.08</ele>
        <time>2014-01-26T10:15:13Z</time>
      </trkpt>
      <trkpt lat="43.40679" lon="6.56654">
        <ele>263.33</ele>
        <time>2014-01-26T10:15:30Z</time>
      </trkpt>
      <trkpt lat="43.40677" lon="6.56629">
        <ele>265.82</ele>
        <time>2014-01-26T10:15:42Z</time>
      </trkpt>
      <trkpt lat="43.40678" lon="6.56603">
        <ele>268.27</ele>
        <time>2014-01-26T10:15:53Z</time>
      </trkpt>
      <trkpt lat="43.40673" lon="6.56578">
        <ele>270.3</ele>
        <time>2014-01-26T10:16:04Z</time>
      </trkpt>
      <trkpt lat="43.40664" lon="6.56556">
        <ele>272.32</ele>
        <time>2014-01-26T10:16:17Z</time>
      </trkpt>
      <trkpt lat="43.40655" lon="6.56532">
        <ele>273.33</ele>
        <time>2014-01-26T10:16:29Z</time>
      </trkpt>
      <trkpt lat="43.40647" lon="6.56508">
        <ele>275.08</ele>
        <time>2014-01-26T10:16:39Z</time>
      </trkpt>
      <trkpt lat="43.4064" lon="6.56484">
        <ele>276.33</ele>
        <time>2014-01-26T10:16:52Z</time>
      </trkpt>
      <trkpt lat="43.4063" lon="6.56462">
        <ele>278.3</ele>
        <time>2014-01-26T10:17:05Z</time>
      </trkpt>
      <trkpt lat="43.40615" lon="6.56446">
        <ele>279.83</ele>
        <time>2014-01-26T10:17:33Z</time>
      </trkpt>
      <trkpt lat="43.40615" lon="6.56472">
        <ele>283.04</ele>
        <time>2014-01-26T10:17:48Z</time>
      </trkpt>
      <trkpt lat="43.40623" lon="6.56496">
        <ele>287.75</ele>
        <time>2014-01-26T10:17:59Z</time>
      </trkpt>
      <trkpt lat="43.40619" lon="6.56522">
        <ele>290.3</ele>
        <time>2014-01-26T10:18:10Z</time>
      </trkpt>
      <trkpt lat="43.40615" lon="6.56547">
        <ele>292.08</ele>
        <time>2014-01-26T10:18:19Z</time>
      </trkpt>
      <trkpt lat="43.40611" lon="6.56572">
        <ele>293.21</ele>
        <time>2014-01-26T10:18:29Z</time>
      </trkpt>
      <trkpt lat="43.40605" lon="6.56596">
        <ele>294.21</ele>
        <time>2014-01-26T10:18:42Z</time>
      </trkpt>
      <trkpt lat="43.40597" lon="6.5662">
        <ele>294.33</ele>
        <time>2014-01-26T10:18:55Z</time>
      </trkpt>
      <trkpt lat="43.40587" lon="6.5664">
        <ele>295.33</ele>
        <time>2014-01-26T10:19:05Z</time>
      </trkpt>
      <trkpt lat="43.40575" lon="6.56661">
        <ele>296.33</ele>
        <time>2014-01-26T10:19:18Z</time>
      </trkpt>
      <trkpt lat="43.40565" lon="6.56681">
        <ele>297.21</ele>
        <time>2014-01-26T10:19:29Z</time>
      </trkpt>
      <trkpt lat="43.40558" lon="6.56705">
        <ele>297.33</ele>
        <time>2014-01-26T10:19:42Z</time>
      </trkpt>
      <trkpt lat="43.40541" lon="6.56717">
        <ele>298.33</ele>
        <time>2014-01-26T10:19:55Z</time>
      </trkpt>
      <trkpt lat="43.40525" lon="6.56732">
        <ele>299.08</ele>
        <time>2014-01-26T10:20:07Z</time>
      </trkpt>
      <trkpt lat="43.40512" lon="6.5675">
        <ele>299.33</ele>
        <time>2014-01-26T10:20:18Z</time>
      </trkpt>
      <trkpt lat="43.40499" lon="6.56769">
        <ele>300.32</ele>
        <time>2014-01-26T10:20:30Z</time>
      </trkpt>
      <trkpt lat="43.40488" lon="6.56791">
        <ele>300.33</ele>
        <time>2014-01-26T10:20:42Z</time>
      </trkpt>
      <trkpt lat="43.40479" lon="6.56813">
        <ele>301.33</ele>
        <time>2014-01-26T10:20:53Z</time>
      </trkpt>
      <trkpt lat="43.40469" lon="6.56835">
        <ele>301.83</ele>
        <time>2014-01-26T10:21:03Z</time>
      </trkpt>
      <trkpt lat="43.40457" lon="6.56853">
        <ele>302.33</ele>
        <time>2014-01-26T10:21:11Z</time>
      </trkpt>
      <trkpt lat="43.40442" lon="6.56868">
        <ele>302.33</ele>
        <time>2014-01-26T10:21:18Z</time>
      </trkpt>
      <trkpt lat="43.40424" lon="6.56872">
        <ele>303.33</ele>
        <time>2014-01-26T10:21:29Z</time>
      </trkpt>
      <trkpt lat="43.40426" lon="6.56845">
        <ele>305.3</ele>
        <time>2014-01-26T10:21:44Z</time>
      </trkpt>
      <trkpt lat="43.40441" lon="6.56833">
        <ele>306.27</ele>
        <time>2014-01-26T10:21:49Z</time>
      </trkpt>
      <trkpt lat="43.40453" lon="6.56812">
        <ele>308.07</ele>
        <time>2014-01-26T10:21:56Z</time>
      </trkpt>
      <trkpt lat="43.40452" lon="6.56787">
        <ele>312.75</ele>
        <time>2014-01-26T10:22:08Z</time>
      </trkpt>
      <trkpt lat="43.40451" lon="6.56761">
        <ele>316.07</ele>
        <time>2014-01-26T10:22:20Z</time>
      </trkpt>
      <trkpt lat="43.40437" lon="6.56744">
        <ele>318.27</ele>
        <time>2014-01-26T10:22:32Z</time>
      </trkpt>
      <trkpt lat="43.40431" lon="6.56719">
        <ele>320.27</ele>
        <time>2014-01-26T10:22:45Z</time>
      </trkpt>
      <trkpt lat="43.40427" lon="6.56694">
        <ele>321.33</ele>
        <time>2014-01-26T10:22:56Z</time>
      </trkpt>
      <trkpt lat="43.40424" lon="6.56669">
        <ele>322.33</ele>
        <time>2014-01-26T10:23:05Z</time>
      </trkpt>
      <trkpt lat="43.40419" lon="6.56645">
        <ele>323.33</ele>
        <time>2014-01-26T10:23:15Z</time>
      </trkpt>
      <trkpt lat="43.40419" lon="6.56621">
        <ele>324.33</ele>
        <time>2014-01-26T10:23:24Z</time>
      </trkpt>
      <trkpt lat="43.40414" lon="6.56596">
        <ele>326.3</ele>
        <time>2014-01-26T10:23:35Z</time>
      </trkpt>
      <trkpt lat="43.40399" lon="6.56613">
        <ele>333.04</ele>
        <time>2014-01-26T10:24:54Z</time>
      </trkpt>
      <trkpt lat="43.4038" lon="6.56617">
        <ele>335.79</ele>
        <time>2014-01-26T10:25:02Z</time>
      </trkpt>
      <trkpt lat="43.40366" lon="6.56637">
        <ele>344.49</ele>
        <time>2014-01-26T10:25:06Z</time>
      </trkpt>
      <trkpt lat="43.40356" lon="6.56665">
        <ele>350.22</ele>
        <time>2014-01-26T10:25:10Z</time>
      </trkpt>
      <trkpt lat="43.40347" lon="6.56688">
        <ele>352.57</ele>
        <time>2014-01-26T10:25:13Z</time>
      </trkpt>
      <trkpt lat="43.40345" lon="6.56715">
        <ele>354.83</ele>
        <time>2014-01-26T10:25:41Z</time>
      </trkpt>
      <trkpt lat="43.40358" lon="6.56737">
        <ele>356.08</ele>
        <time>2014-01-26T10:25:48Z</time>
      </trkpt>
      <trkpt lat="43.40367" lon="6.56762">
        <ele>357.08</ele>
        <time>2014-01-26T10:25:56Z</time>
      </trkpt>
      <trkpt lat="43.40375" lon="6.56789">
        <ele>357.33</ele>
        <time>2014-01-26T10:26:03Z</time>
      </trkpt>
      <trkpt lat="43.40382" lon="6.56814">
        <ele>358.33</ele>
        <time>2014-01-26T10:26:10Z</time>
      </trkpt>
      <trkpt lat="43.40387" lon="6.5684">
        <ele>359.21</ele>
        <time>2014-01-26T10:26:16Z</time>
      </trkpt>
      <trkpt lat="43.40388" lon="6.56874">
        <ele>359.33</ele>
        <time>2014-01-26T10:26:26Z</time>
      </trkpt>
      <trkpt lat="43.40394" lon="6.56898">
        <ele>361.02</ele>
        <time>2014-01-26T10:26:30Z</time>
      </trkpt>
      <trkpt lat="43.40393" lon="6.56924">
        <ele>362.07</ele>
        <time>2014-01-26T10:26:35Z</time>
      </trkpt>
      <trkpt lat="43.40376" lon="6.56943">
        <ele>362.33</ele>
        <time>2014-01-26T10:26:41Z</time>
      </trkpt>
      <trkpt lat="43.40363" lon="6.56965">
        <ele>362.33</ele>
        <time>2014-01-26T10:26:47Z</time>
      </trkpt>
      <trkpt lat="43.40348" lon="6.56982">
        <ele>362.33</ele>
        <time>2014-01-26T10:26:53Z</time>
      </trkpt>
      <trkpt lat="43.40328" lon="6.56986">
        <ele>363.71</ele>
        <time>2014-01-26T10:26:58Z</time>
      </trkpt>
      <trkpt lat="43.40307" lon="6.5699">
        <ele>364.81</ele>
        <time>2014-01-26T10:27:03Z</time>
      </trkpt>
      <trkpt lat="43.40293" lon="6.57006">
        <ele>365.32</ele>
        <time>2014-01-26T10:27:08Z</time>
      </trkpt>
      <trkpt lat="43.40278" lon="6.57021">
        <ele>365.33</ele>
        <time>2014-01-26T10:27:13Z</time>
      </trkpt>
      <trkpt lat="43.4026" lon="6.57021">
        <ele>365.83</ele>
        <time>2014-01-26T10:27:19Z</time>
      </trkpt>
      <trkpt lat="43.4024" lon="6.57026">
        <ele>366.33</ele>
        <time>2014-01-26T10:27:25Z</time>
      </trkpt>
      <trkpt lat="43.4022" lon="6.57036">
        <ele>367.08</ele>
        <time>2014-01-26T10:27:30Z</time>
      </trkpt>
      <trkpt lat="43.40205" lon="6.57053">
        <ele>367.33</ele>
        <time>2014-01-26T10:27:38Z</time>
      </trkpt>
      <trkpt lat="43.40193" lon="6.57072">
        <ele>367.33</ele>
        <time>2014-01-26T10:27:44Z</time>
      </trkpt>
      <trkpt lat="43.40184" lon="6.57095">
        <ele>367.33</ele>
        <time>2014-01-26T10:27:53Z</time>
      </trkpt>
      <trkpt lat="43.40176" lon="6.5712">
        <ele>367.33</ele>
        <time>2014-01-26T10:27:58Z</time>
      </trkpt>
      <trkpt lat="43.40165" lon="6.57141">
        <ele>367.33</ele>
        <time>2014-01-26T10:28:03Z</time>
      </trkpt>
      <trkpt lat="43.40148" lon="6.57157">
        <ele>367.33</ele>
        <time>2014-01-26T10:28:08Z</time>
      </trkpt>
      <trkpt lat="43.40129" lon="6.57169">
        <ele>366.58</ele>
        <time>2014-01-26T10:28:12Z</time>
      </trkpt>
      <trkpt lat="43.40111" lon="6.57177">
        <ele>365.1</ele>
        <time>2014-01-26T10:28:16Z</time>
      </trkpt>
      <trkpt lat="43.40095" lon="6.57187">
        <ele>363.39</ele>
        <time>2014-01-26T10:28:21Z</time>
      </trkpt>
      <trkpt lat="43.4008" lon="6.57205">
        <ele>362.08</ele>
        <time>2014-01-26T10:28:26Z</time>
      </trkpt>
      <trkpt lat="43.40066" lon="6.57223">
        <ele>359.89</ele>
        <time>2014-01-26T10:28:31Z</time>
      </trkpt>
      <trkpt lat="43.40048" lon="6.57235">
        <ele>358.59</ele>
        <time>2014-01-26T10:28:37Z</time>
      </trkpt>
      <trkpt lat="43.40029" lon="6.5725">
        <ele>357.59</ele>
        <time>2014-01-26T10:28:44Z</time>
      </trkpt>
      <trkpt lat="43.40009" lon="6.57261">
        <ele>356.09</ele>
        <time>2014-01-26T10:28:49Z</time>
      </trkpt>
      <trkpt lat="43.40002" lon="6.57286">
        <ele>355.36</ele>
        <time>2014-01-26T10:28:54Z</time>
      </trkpt>
      <trkpt lat="43.4002" lon="6.57294">
        <ele>351.9</ele>
        <time>2014-01-26T10:29:02Z</time>
      </trkpt>
      <trkpt lat="43.40038" lon="6.57302">
        <ele>347.15</ele>
        <time>2014-01-26T10:29:05Z</time>
      </trkpt>
      <trkpt lat="43.40056" lon="6.57311">
        <ele>346.44</ele>
        <time>2014-01-26T10:29:08Z</time>
      </trkpt>
      <trkpt lat="43.40101" lon="6.57306">
        <ele>346.35</ele>
        <time>2014-01-26T10:29:16Z</time>
      </trkpt>
      <trkpt lat="43.40084" lon="6.57317">
        <ele>330.24</ele>
        <time>2014-01-26T10:29:38Z</time>
      </trkpt>
      <trkpt lat="43.40071" lon="6.57338">
        <ele>324.88</ele>
        <time>2014-01-26T10:29:46Z</time>
      </trkpt>
      <trkpt lat="43.40056" lon="6.57354">
        <ele>322.84</ele>
        <time>2014-01-26T10:29:56Z</time>
      </trkpt>
      <trkpt lat="43.4004" lon="6.57368">
        <ele>321.4</ele>
        <time>2014-01-26T10:30:03Z</time>
      </trkpt>
      <trkpt lat="43.4003" lon="6.5739">
        <ele>320.46</ele>
        <time>2014-01-26T10:30:09Z</time>
      </trkpt>
      <trkpt lat="43.40022" lon="6.57414">
        <ele>319.4</ele>
        <time>2014-01-26T10:30:16Z</time>
      </trkpt>
      <trkpt lat="43.40011" lon="6.57437">
        <ele>317.85</ele>
        <time>2014-01-26T10:30:23Z</time>
      </trkpt>
      <trkpt lat="43.39994" lon="6.57448">
        <ele>316.6</ele>
        <time>2014-01-26T10:30:28Z</time>
      </trkpt>
      <trkpt lat="43.39974" lon="6.57448">
        <ele>314.6</ele>
        <time>2014-01-26T10:30:35Z</time>
      </trkpt>
      <trkpt lat="43.39983" lon="6.57472">
        <ele>299.37</ele>
        <time>2014-01-26T10:30:49Z</time>
      </trkpt>
      <trkpt lat="43.4" lon="6.57494">
        <ele>292.41</ele>
        <time>2014-01-26T10:30:55Z</time>
      </trkpt>
      <trkpt lat="43.40017" lon="6.57499">
        <ele>285.28</ele>
        <time>2014-01-26T10:30:59Z</time>
      </trkpt>
      <trkpt lat="43.40035" lon="6.57493">
        <ele>279.52</ele>
        <time>2014-01-26T10:31:03Z</time>
      </trkpt>
      <trkpt lat="43.40035" lon="6.57518">
        <ele>274.71</ele>
        <time>2014-01-26T10:31:12Z</time>
      </trkpt>
      <trkpt lat="43.40025" lon="6.57542">
        <ele>269.84</ele>
        <time>2014-01-26T10:31:17Z</time>
      </trkpt>
      <trkpt lat="43.40013" lon="6.57564">
        <ele>267.05</ele>
        <time>2014-01-26T10:31:21Z</time>
      </trkpt>
      <trkpt lat="43.39993" lon="6.57575">
        <ele>265.5</ele>
        <time>2014-01-26T10:31:25Z</time>
      </trkpt>
      <trkpt lat="43.39972" lon="6.5757">
        <ele>264.59</ele>
        <time>2014-01-26T10:31:29Z</time>
      </trkpt>
      <trkpt lat="43.39967" lon="6.57598">
        <ele>263.46</ele>
        <time>2014-01-26T10:31:38Z</time>
      </trkpt>
      <trkpt lat="43.39981" lon="6.57633">
        <ele>262.86</ele>
        <time>2014-01-26T10:31:44Z</time>
      </trkpt>
      <trkpt lat="43.39994" lon="6.57654">
        <ele>262.37</ele>
        <time>2014-01-26T10:31:48Z</time>
      </trkpt>
      <trkpt lat="43.40005" lon="6.57676">
        <ele>262.34</ele>
        <time>2014-01-26T10:31:52Z</time>
      </trkpt>
      <trkpt lat="43.40146" lon="6.57621">
        <ele>261.83</ele>
        <time>2014-01-26T10:31:54Z</time>
      </trkpt>
      <trkpt lat="43.40154" lon="6.57593">
        <ele>260.58</ele>
        <time>2014-01-26T10:31:55Z</time>
      </trkpt>
      <trkpt lat="43.40123" lon="6.57624">
        <ele>252.85</ele>
        <time>2014-01-26T10:31:59Z</time>
      </trkpt>
      <trkpt lat="43.40131" lon="6.57598">
        <ele>242.84</ele>
        <time>2014-01-26T10:32:07Z</time>
      </trkpt>
      <trkpt lat="43.40144" lon="6.57576">
        <ele>236.6</ele>
        <time>2014-01-26T10:32:12Z</time>
      </trkpt>
      <trkpt lat="43.40162" lon="6.57583">
        <ele>233.69</ele>
        <time>2014-01-26T10:32:17Z</time>
      </trkpt>
      <trkpt lat="43.40184" lon="6.57581">
        <ele>232.41</ele>
        <time>2014-01-26T10:32:22Z</time>
      </trkpt>
      <trkpt lat="43.40203" lon="6.57575">
        <ele>231.84</ele>
        <time>2014-01-26T10:32:27Z</time>
      </trkpt>
      <trkpt lat="43.40224" lon="6.57579">
        <ele>227.09</ele>
        <time>2014-01-26T10:32:33Z</time>
      </trkpt>
      <trkpt lat="43.40229" lon="6.57605">
        <ele>223.85</ele>
        <time>2014-01-26T10:32:40Z</time>
      </trkpt>
      <trkpt lat="43.40249" lon="6.57609">
        <ele>222.34</ele>
        <time>2014-01-26T10:32:48Z</time>
      </trkpt>
      <trkpt lat="43.40268" lon="6.57597">
        <ele>220.65</ele>
        <time>2014-01-26T10:32:52Z</time>
      </trkpt>
      <trkpt lat="43.4029" lon="6.57584">
        <ele>218.67</ele>
        <time>2014-01-26T10:32:56Z</time>
      </trkpt>
      <trkpt lat="43.40305" lon="6.5757">
        <ele>217.62</ele>
        <time>2014-01-26T10:32:59Z</time>
      </trkpt>
      <trkpt lat="43.40315" lon="6.57541">
        <ele>215.66</ele>
        <time>2014-01-26T10:33:03Z</time>
      </trkpt>
      <trkpt lat="43.40316" lon="6.5751">
        <ele>214.48</ele>
        <time>2014-01-26T10:33:07Z</time>
      </trkpt>
      <trkpt lat="43.40336" lon="6.57502">
        <ele>213.46</ele>
        <time>2014-01-26T10:33:13Z</time>
      </trkpt>
      <trkpt lat="43.40356" lon="6.57512">
        <ele>212.47</ele>
        <time>2014-01-26T10:33:17Z</time>
      </trkpt>
      <trkpt lat="43.40379" lon="6.57525">
        <ele>212.85</ele>
        <time>2014-01-26T10:33:20Z</time>
      </trkpt>
      <trkpt lat="43.40397" lon="6.57526">
        <ele>213.21</ele>
        <time>2014-01-26T10:33:22Z</time>
      </trkpt>
      <trkpt lat="43.40405" lon="6.57501">
        <ele>212.82</ele>
        <time>2014-01-26T10:33:25Z</time>
      </trkpt>
      <trkpt lat="43.40414" lon="6.57478">
        <ele>211.64</ele>
        <time>2014-01-26T10:33:28Z</time>
      </trkpt>
      <trkpt lat="43.40428" lon="6.57461">
        <ele>209.25</ele>
        <time>2014-01-26T10:33:31Z</time>
      </trkpt>
      <trkpt lat="43.40444" lon="6.57448">
        <ele>204.45</ele>
        <time>2014-01-26T10:33:35Z</time>
      </trkpt>
      <trkpt lat="43.40465" lon="6.57434">
        <ele>201.22</ele>
        <time>2014-01-26T10:33:39Z</time>
      </trkpt>
      <trkpt lat="43.40483" lon="6.57426">
        <ele>198.08</ele>
        <time>2014-01-26T10:33:43Z</time>
      </trkpt>
      <trkpt lat="43.40504" lon="6.57435">
        <ele>194.76</ele>
        <time>2014-01-26T10:33:48Z</time>
      </trkpt>
      <trkpt lat="43.40522" lon="6.5745">
        <ele>193.61</ele>
        <time>2014-01-26T10:33:52Z</time>
      </trkpt>
      <trkpt lat="43.4054" lon="6.57465">
        <ele>193.35</ele>
        <time>2014-01-26T10:33:56Z</time>
      </trkpt>
      <trkpt lat="43.40557" lon="6.57473">
        <ele>192.58</ele>
        <time>2014-01-26T10:34:00Z</time>
      </trkpt>
      <trkpt lat="43.40579" lon="6.57478">
        <ele>191.6</ele>
        <time>2014-01-26T10:34:04Z</time>
      </trkpt>
      <trkpt lat="43.40599" lon="6.57473">
        <ele>188.29</ele>
        <time>2014-01-26T10:34:08Z</time>
      </trkpt>
      <trkpt lat="43.40613" lon="6.57447">
        <ele>186.02</ele>
        <time>2014-01-26T10:34:12Z</time>
      </trkpt>
      <trkpt lat="43.4062" lon="6.57424">
        <ele>183.79</ele>
        <time>2014-01-26T10:34:15Z</time>
      </trkpt>
      <trkpt lat="43.40625" lon="6.57399">
        <ele>182.52</ele>
        <time>2014-01-26T10:34:18Z</time>
      </trkpt>
      <trkpt lat="43.40637" lon="6.57375">
        <ele>181.41</ele>
        <time>2014-01-26T10:34:22Z</time>
      </trkpt>
      <trkpt lat="43.40658" lon="6.57361">
        <ele>181.34</ele>
        <time>2014-01-26T10:34:26Z</time>
      </trkpt>
      <trkpt lat="43.40678" lon="6.57343">
        <ele>181.33</ele>
        <time>2014-01-26T10:34:30Z</time>
      </trkpt>
      <trkpt lat="43.40694" lon="6.57324">
        <ele>181.33</ele>
        <time>2014-01-26T10:34:34Z</time>
      </trkpt>
      <trkpt lat="43.40714" lon="6.57322">
        <ele>180.35</ele>
        <time>2014-01-26T10:34:40Z</time>
      </trkpt>
      <trkpt lat="43.40731" lon="6.57314">
        <ele>179.33</ele>
        <time>2014-01-26T10:35:05Z</time>
      </trkpt>
      <trkpt lat="43.40745" lon="6.57296">
        <ele>178.34</ele>
        <time>2014-01-26T10:35:12Z</time>
      </trkpt>
      <trkpt lat="43.40756" lon="6.57274">
        <ele>177.58</ele>
        <time>2014-01-26T10:35:18Z</time>
      </trkpt>
      <trkpt lat="43.40755" lon="6.57304">
        <ele>176.58</ele>
        <time>2014-01-26T10:35:27Z</time>
      </trkpt>
      <trkpt lat="43.4074" lon="6.57319">
        <ele>175.6</ele>
        <time>2014-01-26T10:35:31Z</time>
      </trkpt>
      <trkpt lat="43.40723" lon="6.57335">
        <ele>175.35</ele>
        <time>2014-01-26T10:35:35Z</time>
      </trkpt>
      <trkpt lat="43.40707" lon="6.57353">
        <ele>175.33</ele>
        <time>2014-01-26T10:35:39Z</time>
      </trkpt>
      <trkpt lat="43.40699" lon="6.57383">
        <ele>174.58</ele>
        <time>2014-01-26T10:35:43Z</time>
      </trkpt>
      <trkpt lat="43.40688" lon="6.57405">
        <ele>174.35</ele>
        <time>2014-01-26T10:35:47Z</time>
      </trkpt>
      <trkpt lat="43.40672" lon="6.5742">
        <ele>174.33</ele>
        <time>2014-01-26T10:35:51Z</time>
      </trkpt>
      <trkpt lat="43.40663" lon="6.57446">
        <ele>174.33</ele>
        <time>2014-01-26T10:35:55Z</time>
      </trkpt>
      <trkpt lat="43.40653" lon="6.57471">
        <ele>173.58</ele>
        <time>2014-01-26T10:35:59Z</time>
      </trkpt>
      <trkpt lat="43.4064" lon="6.57493">
        <ele>173.35</ele>
        <time>2014-01-26T10:36:03Z</time>
      </trkpt>
      <trkpt lat="43.40628" lon="6.57514">
        <ele>173.33</ele>
        <time>2014-01-26T10:36:07Z</time>
      </trkpt>
      <trkpt lat="43.406" lon="6.57509">
        <ele>172.46</ele>
        <time>2014-01-26T10:36:10Z</time>
      </trkpt>
      <trkpt lat="43.40579" lon="6.57512">
        <ele>171.61</ele>
        <time>2014-01-26T10:36:12Z</time>
      </trkpt>
      <trkpt lat="43.40556" lon="6.57519">
        <ele>171.37</ele>
        <time>2014-01-26T10:36:15Z</time>
      </trkpt>
      <trkpt lat="43.40535" lon="6.57519">
        <ele>171.34</ele>
        <time>2014-01-26T10:36:18Z</time>
      </trkpt>
      <trkpt lat="43.40518" lon="6.57511">
        <ele>171.33</ele>
        <time>2014-01-26T10:36:21Z</time>
      </trkpt>
      <trkpt lat="43.40502" lon="6.57526">
        <ele>171.58</ele>
        <time>2014-01-26T10:36:25Z</time>
      </trkpt>
      <trkpt lat="43.40489" lon="6.57553">
        <ele>171.35</ele>
        <time>2014-01-26T10:36:29Z</time>
      </trkpt>
      <trkpt lat="43.40475" lon="6.57576">
        <ele>170.46</ele>
        <time>2014-01-26T10:36:33Z</time>
      </trkpt>
      <trkpt lat="43.40481" lon="6.57603">
        <ele>167.33</ele>
        <time>2014-01-26T10:37:33Z</time>
      </trkpt>
      <trkpt lat="43.405" lon="6.576">
        <ele>161.61</ele>
        <time>2014-01-26T10:37:51Z</time>
      </trkpt>
      <trkpt lat="43.40516" lon="6.57612">
        <ele>158.9</ele>
        <time>2014-01-26T10:38:00Z</time>
      </trkpt>
      <trkpt lat="43.40517" lon="6.57638">
        <ele>154.43</ele>
        <time>2014-01-26T10:38:23Z</time>
      </trkpt>
      <trkpt lat="43.40503" lon="6.57666">
        <ele>152.35</ele>
        <time>2014-01-26T10:38:34Z</time>
      </trkpt>
      <trkpt lat="43.40498" lon="6.57691">
        <ele>151.35</ele>
        <time>2014-01-26T10:38:41Z</time>
      </trkpt>
      <trkpt lat="43.40504" lon="6.57715">
        <ele>150.36</ele>
        <time>2014-01-26T10:38:48Z</time>
      </trkpt>
      <trkpt lat="43.40524" lon="6.57708">
        <ele>147.62</ele>
        <time>2014-01-26T10:38:56Z</time>
      </trkpt>
      <trkpt lat="43.40541" lon="6.57697">
        <ele>144.92</ele>
        <time>2014-01-26T10:39:02Z</time>
      </trkpt>
      <trkpt lat="43.40559" lon="6.57683">
        <ele>141.98</ele>
        <time>2014-01-26T10:39:09Z</time>
      </trkpt>
      <trkpt lat="43.40579" lon="6.57682">
        <ele>139.91</ele>
        <time>2014-01-26T10:39:15Z</time>
      </trkpt>
      <trkpt lat="43.40598" lon="6.57677">
        <ele>136.98</ele>
        <time>2014-01-26T10:39:20Z</time>
      </trkpt>
      <trkpt lat="43.40616" lon="6.57666">
        <ele>129.12</ele>
        <time>2014-01-26T10:39:24Z</time>
      </trkpt>
      <trkpt lat="43.40634" lon="6.57657">
        <ele>124.88</ele>
        <time>2014-01-26T10:39:28Z</time>
      </trkpt>
      <trkpt lat="43.40653" lon="6.57655">
        <ele>123.84</ele>
        <time>2014-01-26T10:39:34Z</time>
      </trkpt>
      <trkpt lat="43.40672" lon="6.5765">
        <ele>122.6</ele>
        <time>2014-01-26T10:39:39Z</time>
      </trkpt>
      <trkpt lat="43.4069" lon="6.57642">
        <ele>122.34</ele>
        <time>2014-01-26T10:39:46Z</time>
      </trkpt>
      <trkpt lat="43.40709" lon="6.57635">
        <ele>121.36</ele>
        <time>2014-01-26T10:39:52Z</time>
      </trkpt>
      <trkpt lat="43.40727" lon="6.57627">
        <ele>121.33</ele>
        <time>2014-01-26T10:39:59Z</time>
      </trkpt>
      <trkpt lat="43.40745" lon="6.57616">
        <ele>121.33</ele>
        <time>2014-01-26T10:40:05Z</time>
      </trkpt>
      <trkpt lat="43.40753" lon="6.5759">
        <ele>120.83</ele>
        <time>2014-01-26T10:40:23Z</time>
      </trkpt>
      <trkpt lat="43.4077" lon="6.57581">
        <ele>119.4</ele>
        <time>2014-01-26T10:40:45Z</time>
      </trkpt>
      <trkpt lat="43.40788" lon="6.57573">
        <ele>118.36</ele>
        <time>2014-01-26T10:40:57Z</time>
      </trkpt>
      <trkpt lat="43.40804" lon="6.57561">
        <ele>117.33</ele>
        <time>2014-01-26T10:41:24Z</time>
      </trkpt>
      <trkpt lat="43.40821" lon="6.57551">
        <ele>116.34</ele>
        <time>2014-01-26T10:41:44Z</time>
      </trkpt>
      <trkpt lat="43.40839" lon="6.57544">
        <ele>116.33</ele>
        <time>2014-01-26T10:41:51Z</time>
      </trkpt>
      <trkpt lat="43.40857" lon="6.57531">
        <ele>116.33</ele>
        <time>2014-01-26T10:41:57Z</time>
      </trkpt>
      <trkpt lat="43.40874" lon="6.57518">
        <ele>116.33</ele>
        <time>2014-01-26T10:42:02Z</time>
      </trkpt>
      <trkpt lat="43.4089" lon="6.57501">
        <ele>115.46</ele>
        <time>2014-01-26T10:42:07Z</time>
      </trkpt>
      <trkpt lat="43.40906" lon="6.57483">
        <ele>115.34</ele>
        <time>2014-01-26T10:42:12Z</time>
      </trkpt>
      <trkpt lat="43.40921" lon="6.57467">
        <ele>114.4</ele>
        <time>2014-01-26T10:42:17Z</time>
      </trkpt>
      <trkpt lat="43.40939" lon="6.57453">
        <ele>114.33</ele>
        <time>2014-01-26T10:42:22Z</time>
      </trkpt>
      <trkpt lat="43.40957" lon="6.57439">
        <ele>114.33</ele>
        <time>2014-01-26T10:42:30Z</time>
      </trkpt>
      <trkpt lat="43.40974" lon="6.57421">
        <ele>114.33</ele>
        <time>2014-01-26T10:42:36Z</time>
      </trkpt>
      <trkpt lat="43.40993" lon="6.57411">
        <ele>114.33</ele>
        <time>2014-01-26T10:42:41Z</time>
      </trkpt>
      <trkpt lat="43.41012" lon="6.57398">
        <ele>114.33</ele>
        <time>2014-01-26T10:42:47Z</time>
      </trkpt>
      <trkpt lat="43.41028" lon="6.57381">
        <ele>114.33</ele>
        <time>2014-01-26T10:42:53Z</time>
      </trkpt>
      <trkpt lat="43.41046" lon="6.57374">
        <ele>114.33</ele>
        <time>2014-01-26T10:42:58Z</time>
      </trkpt>
      <trkpt lat="43.41067" lon="6.57367">
        <ele>114.33</ele>
        <time>2014-01-26T10:43:03Z</time>
      </trkpt>
      <trkpt lat="43.41084" lon="6.57356">
        <ele>114.33</ele>
        <time>2014-01-26T10:43:07Z</time>
      </trkpt>
      <trkpt lat="43.41101" lon="6.57348">
        <ele>114.33</ele>
        <time>2014-01-26T10:43:11Z</time>
      </trkpt>
      <trkpt lat="43.41118" lon="6.57334">
        <ele>113.83</ele>
        <time>2014-01-26T10:43:15Z</time>
      </trkpt>
      <trkpt lat="43.41133" lon="6.57318">
        <ele>113.35</ele>
        <time>2014-01-26T10:43:20Z</time>
      </trkpt>
      <trkpt lat="43.41149" lon="6.57303">
        <ele>113.33</ele>
        <time>2014-01-26T10:43:25Z</time>
      </trkpt>
      <trkpt lat="43.41166" lon="6.57291">
        <ele>112.46</ele>
        <time>2014-01-26T10:43:30Z</time>
      </trkpt>
      <trkpt lat="43.41184" lon="6.57277">
        <ele>112.34</ele>
        <time>2014-01-26T10:43:35Z</time>
      </trkpt>
      <trkpt lat="43.412" lon="6.57261">
        <ele>111.83</ele>
        <time>2014-01-26T10:45:36Z</time>
      </trkpt>
      <trkpt lat="43.41219" lon="6.57247">
        <ele>111.33</ele>
        <time>2014-01-26T10:45:48Z</time>
      </trkpt>
      <trkpt lat="43.41235" lon="6.57226">
        <ele>110.33</ele>
        <time>2014-01-26T10:46:12Z</time>
      </trkpt>
      <trkpt lat="43.4125" lon="6.57211">
        <ele>109.33</ele>
        <time>2014-01-26T10:46:31Z</time>
      </trkpt>
      <trkpt lat="43.41267" lon="6.57195">
        <ele>109.83</ele>
        <time>2014-01-26T10:46:38Z</time>
      </trkpt>
      <trkpt lat="43.41285" lon="6.57184">
        <ele>110.3</ele>
        <time>2014-01-26T10:46:42Z</time>
      </trkpt>
      <trkpt lat="43.41301" lon="6.57174">
        <ele>110.33</ele>
        <time>2014-01-26T10:46:47Z</time>
      </trkpt>
      <trkpt lat="43.41318" lon="6.57164">
        <ele>110.33</ele>
        <time>2014-01-26T10:46:55Z</time>
      </trkpt>
      <trkpt lat="43.41335" lon="6.57154">
        <ele>110.33</ele>
        <time>2014-01-26T10:47:03Z</time>
      </trkpt>
      <trkpt lat="43.41351" lon="6.57141">
        <ele>110.33</ele>
        <time>2014-01-26T10:47:10Z</time>
      </trkpt>
      <trkpt lat="43.41366" lon="6.57121">
        <ele>111.21</ele>
        <time>2014-01-26T10:47:17Z</time>
      </trkpt>
      <trkpt lat="43.4138" lon="6.57103">
        <ele>111.33</ele>
        <time>2014-01-26T10:47:21Z</time>
      </trkpt>
      <trkpt lat="43.41396" lon="6.57087">
        <ele>111.83</ele>
        <time>2014-01-26T10:47:25Z</time>
      </trkpt>
      <trkpt lat="43.4141" lon="6.5707">
        <ele>112.33</ele>
        <time>2014-01-26T10:47:31Z</time>
      </trkpt>
      <trkpt lat="43.41426" lon="6.57059">
        <ele>112.33</ele>
        <time>2014-01-26T10:47:37Z</time>
      </trkpt>
      <trkpt lat="43.41444" lon="6.57043">
        <ele>112.33</ele>
        <time>2014-01-26T10:47:58Z</time>
      </trkpt>
      <trkpt lat="43.41463" lon="6.5703">
        <ele>111.83</ele>
        <time>2014-01-26T10:48:26Z</time>
      </trkpt>
      <trkpt lat="43.4148" lon="6.57019">
        <ele>111.33</ele>
        <time>2014-01-26T10:50:04Z</time>
      </trkpt>
      <trkpt lat="43.41496" lon="6.57002">
        <ele>110.33</ele>
        <time>2014-01-26T10:50:14Z</time>
      </trkpt>
      <trkpt lat="43.41512" lon="6.5699">
        <ele>110.33</ele>
        <time>2014-01-26T10:50:24Z</time>
      </trkpt>
      <trkpt lat="43.41529" lon="6.56979">
        <ele>110.33</ele>
        <time>2014-01-26T10:50:42Z</time>
      </trkpt>
      <trkpt lat="43.41546" lon="6.56963">
        <ele>110.33</ele>
        <time>2014-01-26T10:51:01Z</time>
      </trkpt>
      <trkpt lat="43.41561" lon="6.56947">
        <ele>110.33</ele>
        <time>2014-01-26T10:51:10Z</time>
      </trkpt>
      <trkpt lat="43.41577" lon="6.56937">
        <ele>111.33</ele>
        <time>2014-01-26T10:51:20Z</time>
      </trkpt>
      <trkpt lat="43.41592" lon="6.56921">
        <ele>111.83</ele>
        <time>2014-01-26T10:51:29Z</time>
      </trkpt>
      <trkpt lat="43.41611" lon="6.56913">
        <ele>112.83</ele>
        <time>2014-01-26T10:51:39Z</time>
      </trkpt>
      <trkpt lat="43.41628" lon="6.56898">
        <ele>113.33</ele>
        <time>2014-01-26T10:51:51Z</time>
      </trkpt>
      <trkpt lat="43.41642" lon="6.56882">
        <ele>114.33</ele>
        <time>2014-01-26T10:51:59Z</time>
      </trkpt>
      <trkpt lat="43.4166" lon="6.56872">
        <ele>115.33</ele>
        <time>2014-01-26T10:52:08Z</time>
      </trkpt>
      <trkpt lat="43.41678" lon="6.56865">
        <ele>117.08</ele>
        <time>2014-01-26T10:52:19Z</time>
      </trkpt>
      <trkpt lat="43.41694" lon="6.5685">
        <ele>118.33</ele>
        <time>2014-01-26T10:52:34Z</time>
      </trkpt>
      <trkpt lat="43.41711" lon="6.56838">
        <ele>120.21</ele>
        <time>2014-01-26T10:52:46Z</time>
      </trkpt>
      <trkpt lat="43.41728" lon="6.56828">
        <ele>121.3</ele>
        <time>2014-01-26T10:52:56Z</time>
      </trkpt>
      <trkpt lat="43.41745" lon="6.56812">
        <ele>122.32</ele>
        <time>2014-01-26T10:53:05Z</time>
      </trkpt>
      <trkpt lat="43.41752" lon="6.56788">
        <ele>123.3</ele>
        <time>2014-01-26T10:53:12Z</time>
      </trkpt>
      <trkpt lat="43.4177" lon="6.56789">
        <ele>124.32</ele>
        <time>2014-01-26T10:53:21Z</time>
      </trkpt>
      <trkpt lat="43.4179" lon="6.56792">
        <ele>125.27</ele>
        <time>2014-01-26T10:53:28Z</time>
      </trkpt>
      <trkpt lat="43.41807" lon="6.56782">
        <ele>126.21</ele>
        <time>2014-01-26T10:53:33Z</time>
      </trkpt>
      <trkpt lat="43.41822" lon="6.568">
        <ele>127.3</ele>
        <time>2014-01-26T10:53:40Z</time>
      </trkpt>
      <trkpt lat="43.41837" lon="6.56814">
        <ele>127.33</ele>
        <time>2014-01-26T10:53:46Z</time>
      </trkpt>
      <trkpt lat="43.41856" lon="6.56824">
        <ele>127.33</ele>
        <time>2014-01-26T10:53:52Z</time>
      </trkpt>
      <trkpt lat="43.41875" lon="6.56822">
        <ele>127.83</ele>
        <time>2014-01-26T10:53:59Z</time>
      </trkpt>
      <trkpt lat="43.41893" lon="6.5681">
        <ele>128.33</ele>
        <time>2014-01-26T10:54:08Z</time>
      </trkpt>
      <trkpt lat="43.41911" lon="6.56801">
        <ele>128.33</ele>
        <time>2014-01-26T10:54:19Z</time>
      </trkpt>
      <trkpt lat="43.41929" lon="6.5679">
        <ele>129.27</ele>
        <time>2014-01-26T10:54:30Z</time>
      </trkpt>
      <trkpt lat="43.41947" lon="6.56783">
        <ele>129.33</ele>
        <time>2014-01-26T10:54:39Z</time>
      </trkpt>
      <trkpt lat="43.41966" lon="6.56787">
        <ele>130.3</ele>
        <time>2014-01-26T10:54:49Z</time>
      </trkpt>
      <trkpt lat="43.41998" lon="6.56639">
        <ele>130.33</ele>
        <time>2014-01-26T10:54:59Z</time>
      </trkpt>
      <trkpt lat="43.42034" lon="6.56446">
        <ele>128.83</ele>
        <time>2014-01-26T10:55:01Z</time>
      </trkpt>
      <trkpt lat="43.42012" lon="6.56536">
        <ele>128.33</ele>
        <time>2014-01-26T10:57:21Z</time>
      </trkpt>
      <trkpt lat="43.4198" lon="6.56616">
        <ele>128.83</ele>
        <time>2014-01-26T10:57:22Z</time>
      </trkpt>
      <trkpt lat="43.41963" lon="6.56665">
        <ele>129.08</ele>
        <time>2014-01-26T10:57:23Z</time>
      </trkpt>
      <trkpt lat="43.41956" lon="6.56693">
        <ele>129.71</ele>
        <time>2014-01-26T10:57:24Z</time>
      </trkpt>
      <trkpt lat="43.41953" lon="6.56722">
        <ele>130.18</ele>
        <time>2014-01-26T10:57:26Z</time>
      </trkpt>
      <trkpt lat="43.4197" lon="6.56741">
        <ele>130.25</ele>
        <time>2014-01-26T10:57:27Z</time>
      </trkpt>
      <trkpt lat="43.41989" lon="6.56759">
        <ele>130.31</ele>
        <time>2014-01-26T10:57:29Z</time>
      </trkpt>
      <trkpt lat="43.42008" lon="6.5675">
        <ele>131.33</ele>
        <time>2014-01-26T10:57:37Z</time>
      </trkpt>
      <trkpt lat="43.42025" lon="6.56739">
        <ele>132.33</ele>
        <time>2014-01-26T10:57:45Z</time>
      </trkpt>
      <trkpt lat="43.42041" lon="6.56726">
        <ele>133.33</ele>
        <time>2014-01-26T10:57:52Z</time>
      </trkpt>
      <trkpt lat="43.42058" lon="6.56717">
        <ele>134.3</ele>
        <time>2014-01-26T10:58:00Z</time>
      </trkpt>
      <trkpt lat="43.42078" lon="6.56718">
        <ele>135.08</ele>
        <time>2014-01-26T10:58:09Z</time>
      </trkpt>
      <trkpt lat="43.42097" lon="6.56716">
        <ele>135.33</ele>
        <time>2014-01-26T10:58:18Z</time>
      </trkpt>
      <trkpt lat="43.42115" lon="6.5671">
        <ele>136.33</ele>
        <time>2014-01-26T10:58:28Z</time>
      </trkpt>
      <trkpt lat="43.42133" lon="6.56699">
        <ele>137.33</ele>
        <time>2014-01-26T10:58:38Z</time>
      </trkpt>
      <trkpt lat="43.42153" lon="6.56691">
        <ele>138.32</ele>
        <time>2014-01-26T10:58:46Z</time>
      </trkpt>
      <trkpt lat="43.42172" lon="6.56685">
        <ele>139.8</ele>
        <time>2014-01-26T10:58:53Z</time>
      </trkpt>
      <trkpt lat="43.4219" lon="6.56673">
        <ele>141.99</ele>
        <time>2014-01-26T10:58:57Z</time>
      </trkpt>
      <trkpt lat="43.42206" lon="6.56658">
        <ele>142.79</ele>
        <time>2014-01-26T10:59:00Z</time>
      </trkpt>
      <trkpt lat="43.42221" lon="6.56644">
        <ele>143.27</ele>
        <time>2014-01-26T10:59:03Z</time>
      </trkpt>
      <trkpt lat="43.42239" lon="6.56632">
        <ele>143.33</ele>
        <time>2014-01-26T10:59:07Z</time>
      </trkpt>
      <trkpt lat="43.42258" lon="6.56622">
        <ele>142.58</ele>
        <time>2014-01-26T10:59:12Z</time>
      </trkpt>
      <trkpt lat="43.42271" lon="6.56605">
        <ele>142.34</ele>
        <time>2014-01-26T10:59:18Z</time>
      </trkpt>
      <trkpt lat="43.42276" lon="6.5658">
        <ele>141.08</ele>
        <time>2014-01-26T10:59:27Z</time>
      </trkpt>
      <trkpt lat="43.42279" lon="6.56555">
        <ele>138.8</ele>
        <time>2014-01-26T10:59:30Z</time>
      </trkpt>
      <trkpt lat="43.42281" lon="6.56523">
        <ele>136.27</ele>
        <time>2014-01-26T10:59:33Z</time>
      </trkpt>
      <trkpt lat="43.42288" lon="6.56492">
        <ele>134.07</ele>
        <time>2014-01-26T10:59:36Z</time>
      </trkpt>
      <trkpt lat="43.42303" lon="6.56467">
        <ele>132.05</ele>
        <time>2014-01-26T10:59:39Z</time>
      </trkpt>
      <trkpt lat="43.42322" lon="6.56442">
        <ele>130.05</ele>
        <time>2014-01-26T10:59:42Z</time>
      </trkpt>
      <trkpt lat="43.42344" lon="6.56426">
        <ele>128.05</ele>
        <time>2014-01-26T10:59:45Z</time>
      </trkpt>
      <trkpt lat="43.4237" lon="6.56419">
        <ele>125.3</ele>
        <time>2014-01-26T10:59:48Z</time>
      </trkpt>
      <trkpt lat="43.42391" lon="6.56413">
        <ele>122.21</ele>
        <time>2014-01-26T10:59:52Z</time>
      </trkpt>
      <trkpt lat="43.42411" lon="6.56402">
        <ele>120.01</ele>
        <time>2014-01-26T10:59:56Z</time>
      </trkpt>
      <trkpt lat="43.4243" lon="6.5639">
        <ele>118.67</ele>
        <time>2014-01-26T10:59:59Z</time>
      </trkpt>
      <trkpt lat="43.42452" lon="6.56377">
        <ele>117</ele>
        <time>2014-01-26T11:00:02Z</time>
      </trkpt>
      <trkpt lat="43.42473" lon="6.56365">
        <ele>115.17</ele>
        <time>2014-01-26T11:00:05Z</time>
      </trkpt>
      <trkpt lat="43.42493" lon="6.56351">
        <ele>113.19</ele>
        <time>2014-01-26T11:00:08Z</time>
      </trkpt>
      <trkpt lat="43.42512" lon="6.56334">
        <ele>111.19</ele>
        <time>2014-01-26T11:00:11Z</time>
      </trkpt>
      <trkpt lat="43.42528" lon="6.56314">
        <ele>109.69</ele>
        <time>2014-01-26T11:00:14Z</time>
      </trkpt>
      <trkpt lat="43.42547" lon="6.56293">
        <ele>108</ele>
        <time>2014-01-26T11:00:17Z</time>
      </trkpt>
      <trkpt lat="43.42567" lon="6.56276">
        <ele>106.67</ele>
        <time>2014-01-26T11:00:20Z</time>
      </trkpt>
      <trkpt lat="43.42589" lon="6.56261">
        <ele>105.62</ele>
        <time>2014-01-26T11:00:23Z</time>
      </trkpt>
      <trkpt lat="43.42612" lon="6.56249">
        <ele>105.37</ele>
        <time>2014-01-26T11:00:26Z</time>
      </trkpt>
      <trkpt lat="43.42637" lon="6.56235">
        <ele>105.34</ele>
        <time>2014-01-26T11:00:29Z</time>
      </trkpt>
      <trkpt lat="43.42661" lon="6.56223">
        <ele>105.33</ele>
        <time>2014-01-26T11:00:32Z</time>
      </trkpt>
      <trkpt lat="43.42684" lon="6.56214">
        <ele>105.33</ele>
        <time>2014-01-26T11:00:35Z</time>
      </trkpt>
      <trkpt lat="43.42705" lon="6.56205">
        <ele>105.33</ele>
        <time>2014-01-26T11:00:38Z</time>
      </trkpt>
      <trkpt lat="43.42728" lon="6.56191">
        <ele>103.96</ele>
        <time>2014-01-26T11:00:41Z</time>
      </trkpt>
      <trkpt lat="43.42749" lon="6.56176">
        <ele>102.04</ele>
        <time>2014-01-26T11:00:44Z</time>
      </trkpt>
      <trkpt lat="43.4277" lon="6.56159">
        <ele>100.67</ele>
        <time>2014-01-26T11:00:47Z</time>
      </trkpt>
      <trkpt lat="43.4279" lon="6.56147">
        <ele>99</ele>
        <time>2014-01-26T11:00:50Z</time>
      </trkpt>
      <trkpt lat="43.42811" lon="6.56136">
        <ele>97.67</ele>
        <time>2014-01-26T11:00:53Z</time>
      </trkpt>
      <trkpt lat="43.42834" lon="6.56127">
        <ele>96</ele>
        <time>2014-01-26T11:00:56Z</time>
      </trkpt>
      <trkpt lat="43.42856" lon="6.56117">
        <ele>94.04</ele>
        <time>2014-01-26T11:00:59Z</time>
      </trkpt>
      <trkpt lat="43.42877" lon="6.56107">
        <ele>92.05</ele>
        <time>2014-01-26T11:01:02Z</time>
      </trkpt>
      <trkpt lat="43.42897" lon="6.56091">
        <ele>90.55</ele>
        <time>2014-01-26T11:01:05Z</time>
      </trkpt>
      <trkpt lat="43.42912" lon="6.5607">
        <ele>89.48</ele>
        <time>2014-01-26T11:01:08Z</time>
      </trkpt>
      <trkpt lat="43.42932" lon="6.56057">
        <ele>91.15</ele>
        <time>2014-01-26T11:01:12Z</time>
      </trkpt>
      <trkpt lat="43.42955" lon="6.56062">
        <ele>87.01</ele>
        <time>2014-01-26T11:01:16Z</time>
      </trkpt>
      <trkpt lat="43.42981" lon="6.56065">
        <ele>82.17</ele>
        <time>2014-01-26T11:01:19Z</time>
      </trkpt>
      <trkpt lat="43.43007" lon="6.56064">
        <ele>76.31</ele>
        <time>2014-01-26T11:01:22Z</time>
      </trkpt>
      <trkpt lat="43.4303" lon="6.5606">
        <ele>71.96</ele>
        <time>2014-01-26T11:01:25Z</time>
      </trkpt>
      <trkpt lat="43.43051" lon="6.56049">
        <ele>67.91</ele>
        <time>2014-01-26T11:01:28Z</time>
      </trkpt>
      <trkpt lat="43.43073" lon="6.56046">
        <ele>65.16</ele>
        <time>2014-01-26T11:01:31Z</time>
      </trkpt>
      <trkpt lat="43.43095" lon="6.56038">
        <ele>61.81</ele>
        <time>2014-01-26T11:01:34Z</time>
      </trkpt>
      <trkpt lat="43.4311" lon="6.56022">
        <ele>58.39</ele>
        <time>2014-01-26T11:01:37Z</time>
      </trkpt>
      <trkpt lat="43.43123" lon="6.55997">
        <ele>56.09</ele>
        <time>2014-01-26T11:01:40Z</time>
      </trkpt>
      <trkpt lat="43.43135" lon="6.55972">
        <ele>54.55</ele>
        <time>2014-01-26T11:01:43Z</time>
      </trkpt>
      <trkpt lat="43.43154" lon="6.5596">
        <ele>54.86</ele>
        <time>2014-01-26T11:01:46Z</time>
      </trkpt>
      <trkpt lat="43.43173" lon="6.55948">
        <ele>54.52</ele>
        <time>2014-01-26T11:01:49Z</time>
      </trkpt>
      <trkpt lat="43.43194" lon="6.55944">
        <ele>52.98</ele>
        <time>2014-01-26T11:01:52Z</time>
      </trkpt>
      <trkpt lat="43.43213" lon="6.55939">
        <ele>51.66</ele>
        <time>2014-01-26T11:01:55Z</time>
      </trkpt>
      <trkpt lat="43.43233" lon="6.5592">
        <ele>49.92</ele>
        <time>2014-01-26T11:01:59Z</time>
      </trkpt>
      <trkpt lat="43.43251" lon="6.55912">
        <ele>48.66</ele>
        <time>2014-01-26T11:02:02Z</time>
      </trkpt>
      <trkpt lat="43.43273" lon="6.55904">
        <ele>48.37</ele>
        <time>2014-01-26T11:02:05Z</time>
      </trkpt>
      <trkpt lat="43.43298" lon="6.55895">
        <ele>47.46</ele>
        <time>2014-01-26T11:02:08Z</time>
      </trkpt>
      <trkpt lat="43.43321" lon="6.55889">
        <ele>46.6</ele>
        <time>2014-01-26T11:02:11Z</time>
      </trkpt>
      <trkpt lat="43.43344" lon="6.55884">
        <ele>45.85</ele>
        <time>2014-01-26T11:02:15Z</time>
      </trkpt>
      <trkpt lat="43.43362" lon="6.5588">
        <ele>45.4</ele>
        <time>2014-01-26T11:02:18Z</time>
      </trkpt>
      <trkpt lat="43.43381" lon="6.55877">
        <ele>45.34</ele>
        <time>2014-01-26T11:02:21Z</time>
      </trkpt>
      <trkpt lat="43.43399" lon="6.55874">
        <ele>45.33</ele>
        <time>2014-01-26T11:02:24Z</time>
      </trkpt>
      <trkpt lat="43.4342" lon="6.55851">
        <ele>44.33</ele>
        <time>2014-01-26T11:02:27Z</time>
      </trkpt>
      <trkpt lat="43.4344" lon="6.55843">
        <ele>39.96</ele>
        <time>2014-01-26T11:02:30Z</time>
      </trkpt>
      <trkpt lat="43.43459" lon="6.5583">
        <ele>34.43</ele>
        <time>2014-01-26T11:02:34Z</time>
      </trkpt>
      <trkpt lat="43.43479" lon="6.55815">
        <ele>31.71</ele>
        <time>2014-01-26T11:02:38Z</time>
      </trkpt>
      <trkpt lat="43.43499" lon="6.55811">
        <ele>30.42</ele>
        <time>2014-01-26T11:02:42Z</time>
      </trkpt>
      <trkpt lat="43.43517" lon="6.55827">
        <ele>29.4</ele>
        <time>2014-01-26T11:02:46Z</time>
      </trkpt>
      <trkpt lat="43.43536" lon="6.5584">
        <ele>29.34</ele>
        <time>2014-01-26T11:02:50Z</time>
      </trkpt>
      <trkpt lat="43.43553" lon="6.5585">
        <ele>29.33</ele>
        <time>2014-01-26T11:02:54Z</time>
      </trkpt>
      <trkpt lat="43.43563" lon="6.55873">
        <ele>29.33</ele>
        <time>2014-01-26T11:03:06Z</time>
      </trkpt>
      <trkpt lat="43.43578" lon="6.55893">
        <ele>29.33</ele>
        <time>2014-01-26T11:03:14Z</time>
      </trkpt>
      <trkpt lat="43.43598" lon="6.55898">
        <ele>30.3</ele>
        <time>2014-01-26T11:03:21Z</time>
      </trkpt>
      <trkpt lat="43.43619" lon="6.55904">
        <ele>30.83</ele>
        <time>2014-01-26T11:03:26Z</time>
      </trkpt>
      <trkpt lat="43.43638" lon="6.55904">
        <ele>31.3</ele>
        <time>2014-01-26T11:03:30Z</time>
      </trkpt>
      <trkpt lat="43.43656" lon="6.559">
        <ele>31.33</ele>
        <time>2014-01-26T11:03:34Z</time>
      </trkpt>
      <trkpt lat="43.43673" lon="6.55889">
        <ele>31.33</ele>
        <time>2014-01-26T11:03:38Z</time>
      </trkpt>
      <trkpt lat="43.43693" lon="6.55882">
        <ele>32.08</ele>
        <time>2014-01-26T11:03:42Z</time>
      </trkpt>
      <trkpt lat="43.43713" lon="6.55887">
        <ele>32.32</ele>
        <time>2014-01-26T11:03:46Z</time>
      </trkpt>
      <trkpt lat="43.43731" lon="6.55885">
        <ele>32.33</ele>
        <time>2014-01-26T11:03:51Z</time>
      </trkpt>
      <trkpt lat="43.43747" lon="6.55873">
        <ele>32.33</ele>
        <time>2014-01-26T11:03:56Z</time>
      </trkpt>
      <trkpt lat="43.43764" lon="6.55855">
        <ele>32.33</ele>
        <time>2014-01-26T11:04:01Z</time>
      </trkpt>
      <trkpt lat="43.43782" lon="6.55854">
        <ele>32.33</ele>
        <time>2014-01-26T11:04:05Z</time>
      </trkpt>
      <trkpt lat="43.43803" lon="6.5586">
        <ele>32.33</ele>
        <time>2014-01-26T11:04:11Z</time>
      </trkpt>
      <trkpt lat="43.43822" lon="6.5587">
        <ele>32.33</ele>
        <time>2014-01-26T11:04:17Z</time>
      </trkpt>
      <trkpt lat="43.4384" lon="6.55883">
        <ele>32.33</ele>
        <time>2014-01-26T11:04:23Z</time>
      </trkpt>
      <trkpt lat="43.43858" lon="6.55895">
        <ele>32.33</ele>
        <time>2014-01-26T11:04:29Z</time>
      </trkpt>
      <trkpt lat="43.43878" lon="6.55899">
        <ele>33.21</ele>
        <time>2014-01-26T11:04:33Z</time>
      </trkpt>
      <trkpt lat="43.43897" lon="6.55906">
        <ele>33.33</ele>
        <time>2014-01-26T11:04:37Z</time>
      </trkpt>
      <trkpt lat="43.43916" lon="6.55915">
        <ele>33.33</ele>
        <time>2014-01-26T11:04:42Z</time>
      </trkpt>
      <trkpt lat="43.43935" lon="6.55905">
        <ele>32.83</ele>
        <time>2014-01-26T11:04:48Z</time>
      </trkpt>
      <trkpt lat="43.43943" lon="6.55932">
        <ele>32.33</ele>
        <time>2014-01-26T11:04:58Z</time>
      </trkpt>
      <trkpt lat="43.43936" lon="6.55959">
        <ele>32.33</ele>
        <time>2014-01-26T11:05:04Z</time>
      </trkpt>
      <trkpt lat="43.43946" lon="6.55981">
        <ele>32.33</ele>
        <time>2014-01-26T11:05:11Z</time>
      </trkpt>
      <trkpt lat="43.43953" lon="6.56008">
        <ele>32.33</ele>
        <time>2014-01-26T11:05:58Z</time>
      </trkpt>
      <trkpt lat="43.43971" lon="6.56021">
        <ele>32.33</ele>
        <time>2014-01-26T11:06:08Z</time>
      </trkpt>
      <trkpt lat="43.43989" lon="6.56032">
        <ele>32.33</ele>
        <time>2014-01-26T11:06:15Z</time>
      </trkpt>
      <trkpt lat="43.44004" lon="6.56015">
        <ele>31.35</ele>
        <time>2014-01-26T11:06:21Z</time>
      </trkpt>
      <trkpt lat="43.44021" lon="6.55996">
        <ele>30.4</ele>
        <time>2014-01-26T11:06:26Z</time>
      </trkpt>
      <trkpt lat="43.44039" lon="6.55981">
        <ele>30.33</ele>
        <time>2014-01-26T11:06:31Z</time>
      </trkpt>
      <trkpt lat="43.44056" lon="6.55969">
        <ele>30.83</ele>
        <time>2014-01-26T11:06:35Z</time>
      </trkpt>
      <trkpt lat="43.44075" lon="6.55954">
        <ele>31.32</ele>
        <time>2014-01-26T11:06:40Z</time>
      </trkpt>
      <trkpt lat="43.44095" lon="6.55944">
        <ele>31.33</ele>
        <time>2014-01-26T11:06:45Z</time>
      </trkpt>
      <trkpt lat="43.4411" lon="6.55926">
        <ele>32.27</ele>
        <time>2014-01-26T11:06:50Z</time>
      </trkpt>
      <trkpt lat="43.44126" lon="6.55908">
        <ele>31.83</ele>
        <time>2014-01-26T11:06:55Z</time>
      </trkpt>
      <trkpt lat="43.44144" lon="6.5589">
        <ele>31.35</ele>
        <time>2014-01-26T11:07:00Z</time>
      </trkpt>
      <trkpt lat="43.44164" lon="6.55879">
        <ele>32.21</ele>
        <time>2014-01-26T11:07:05Z</time>
      </trkpt>
      <trkpt lat="43.44182" lon="6.5587">
        <ele>32.33</ele>
        <time>2014-01-26T11:07:10Z</time>
      </trkpt>
      <trkpt lat="43.442" lon="6.55864">
        <ele>32.33</ele>
        <time>2014-01-26T11:07:16Z</time>
      </trkpt>
      <trkpt lat="43.44221" lon="6.5586">
        <ele>30.71</ele>
        <time>2014-01-26T11:07:21Z</time>
      </trkpt>
      <trkpt lat="43.44239" lon="6.55849">
        <ele>29.37</ele>
        <time>2014-01-26T11:07:28Z</time>
      </trkpt>
      <trkpt lat="43.4426" lon="6.55841">
        <ele>28.83</ele>
        <time>2014-01-26T11:07:34Z</time>
      </trkpt>
      <trkpt lat="43.44279" lon="6.55835">
        <ele>28.36</ele>
        <time>2014-01-26T11:07:38Z</time>
      </trkpt>
      <trkpt lat="43.44298" lon="6.55835">
        <ele>28.33</ele>
        <time>2014-01-26T11:07:44Z</time>
      </trkpt>
      <trkpt lat="43.44316" lon="6.55842">
        <ele>28.33</ele>
        <time>2014-01-26T11:07:51Z</time>
      </trkpt>
      <trkpt lat="43.44334" lon="6.55857">
        <ele>28.33</ele>
        <time>2014-01-26T11:07:57Z</time>
      </trkpt>
      <trkpt lat="43.44352" lon="6.55867">
        <ele>28.33</ele>
        <time>2014-01-26T11:08:02Z</time>
      </trkpt>
      <trkpt lat="43.44372" lon="6.55872">
        <ele>28.83</ele>
        <time>2014-01-26T11:08:07Z</time>
      </trkpt>
      <trkpt lat="43.44389" lon="6.55877">
        <ele>30.05</ele>
        <time>2014-01-26T11:08:11Z</time>
      </trkpt>
      <trkpt lat="43.44408" lon="6.55882">
        <ele>31.07</ele>
        <time>2014-01-26T11:08:15Z</time>
      </trkpt>
      <trkpt lat="43.44429" lon="6.55885">
        <ele>30.57</ele>
        <time>2014-01-26T11:08:19Z</time>
      </trkpt>
      <trkpt lat="43.44448" lon="6.55888">
        <ele>30.47</ele>
        <time>2014-01-26T11:08:23Z</time>
      </trkpt>
      <trkpt lat="43.44466" lon="6.55888">
        <ele>30.34</ele>
        <time>2014-01-26T11:08:27Z</time>
      </trkpt>
      <trkpt lat="43.44486" lon="6.55882">
        <ele>30.33</ele>
        <time>2014-01-26T11:08:31Z</time>
      </trkpt>
      <trkpt lat="43.44506" lon="6.55894">
        <ele>31.08</ele>
        <time>2014-01-26T11:08:35Z</time>
      </trkpt>
      <trkpt lat="43.44523" lon="6.55899">
        <ele>32.25</ele>
        <time>2014-01-26T11:08:39Z</time>
      </trkpt>
      <trkpt lat="43.4454" lon="6.55908">
        <ele>31.58</ele>
        <time>2014-01-26T11:08:43Z</time>
      </trkpt>
      <trkpt lat="43.44562" lon="6.55908">
        <ele>32.31</ele>
        <time>2014-01-26T11:08:48Z</time>
      </trkpt>
      <trkpt lat="43.44582" lon="6.55912">
        <ele>32.33</ele>
        <time>2014-01-26T11:08:53Z</time>
      </trkpt>
      <trkpt lat="43.446" lon="6.5592">
        <ele>32.33</ele>
        <time>2014-01-26T11:08:58Z</time>
      </trkpt>
      <trkpt lat="43.4462" lon="6.55917">
        <ele>32.33</ele>
        <time>2014-01-26T11:09:03Z</time>
      </trkpt>
      <trkpt lat="43.44641" lon="6.55915">
        <ele>33.27</ele>
        <time>2014-01-26T11:09:07Z</time>
      </trkpt>
      <trkpt lat="43.4466" lon="6.55916">
        <ele>33.33</ele>
        <time>2014-01-26T11:09:11Z</time>
      </trkpt>
      <trkpt lat="43.4468" lon="6.55917">
        <ele>34.08</ele>
        <time>2014-01-26T11:09:15Z</time>
      </trkpt>
      <trkpt lat="43.447" lon="6.5592">
        <ele>33.57</ele>
        <time>2014-01-26T11:09:19Z</time>
      </trkpt>
      <trkpt lat="43.44721" lon="6.55919">
        <ele>33.35</ele>
        <time>2014-01-26T11:09:23Z</time>
      </trkpt>
      <trkpt lat="43.4474" lon="6.55919">
        <ele>32.58</ele>
        <time>2014-01-26T11:09:27Z</time>
      </trkpt>
      <trkpt lat="43.44757" lon="6.55927">
        <ele>32.35</ele>
        <time>2014-01-26T11:09:31Z</time>
      </trkpt>
      <trkpt lat="43.44775" lon="6.55933">
        <ele>32.33</ele>
        <time>2014-01-26T11:09:35Z</time>
      </trkpt>
      <trkpt lat="43.44794" lon="6.55939">
        <ele>32.33</ele>
        <time>2014-01-26T11:09:39Z</time>
      </trkpt>
      <trkpt lat="43.44814" lon="6.55944">
        <ele>33.08</ele>
        <time>2014-01-26T11:09:43Z</time>
      </trkpt>
      <trkpt lat="43.44837" lon="6.55948">
        <ele>33.32</ele>
        <time>2014-01-26T11:09:47Z</time>
      </trkpt>
      <trkpt lat="43.44859" lon="6.55952">
        <ele>32.46</ele>
        <time>2014-01-26T11:09:51Z</time>
      </trkpt>
      <trkpt lat="43.44877" lon="6.55958">
        <ele>32.34</ele>
        <time>2014-01-26T11:09:55Z</time>
      </trkpt>
      <trkpt lat="43.44898" lon="6.55969">
        <ele>31.36</ele>
        <time>2014-01-26T11:10:00Z</time>
      </trkpt>
      <trkpt lat="43.44917" lon="6.55979">
        <ele>31.33</ele>
        <time>2014-01-26T11:10:05Z</time>
      </trkpt>
      <trkpt lat="43.44937" lon="6.55987">
        <ele>31.33</ele>
        <time>2014-01-26T11:10:10Z</time>
      </trkpt>
      <trkpt lat="43.44952" lon="6.56002">
        <ele>31.83</ele>
        <time>2014-01-26T11:10:14Z</time>
      </trkpt>
      <trkpt lat="43.4497" lon="6.56016">
        <ele>32.32</ele>
        <time>2014-01-26T11:10:19Z</time>
      </trkpt>
      <trkpt lat="43.44986" lon="6.56028">
        <ele>32.33</ele>
        <time>2014-01-26T11:10:23Z</time>
      </trkpt>
      <trkpt lat="43.45002" lon="6.56043">
        <ele>33.08</ele>
        <time>2014-01-26T11:10:27Z</time>
      </trkpt>
      <trkpt lat="43.45013" lon="6.56068">
        <ele>33.33</ele>
        <time>2014-01-26T11:10:32Z</time>
      </trkpt>
      <trkpt lat="43.4503" lon="6.56084">
        <ele>33.33</ele>
        <time>2014-01-26T11:10:37Z</time>
      </trkpt>
      <trkpt lat="43.45046" lon="6.56096">
        <ele>33.33</ele>
        <time>2014-01-26T11:10:41Z</time>
      </trkpt>
      <trkpt lat="43.45056" lon="6.56117">
        <ele>33.33</ele>
        <time>2014-01-26T11:10:45Z</time>
      </trkpt>
      <trkpt lat="43.45068" lon="6.56137">
        <ele>33.33</ele>
        <time>2014-01-26T11:10:49Z</time>
      </trkpt>
      <trkpt lat="43.45085" lon="6.56154">
        <ele>34.21</ele>
        <time>2014-01-26T11:10:54Z</time>
      </trkpt>
      <trkpt lat="43.45104" lon="6.56168">
        <ele>34.33</ele>
        <time>2014-01-26T11:11:00Z</time>
      </trkpt>
      <trkpt lat="43.4512" lon="6.56181">
        <ele>35.21</ele>
        <time>2014-01-26T11:11:04Z</time>
      </trkpt>
      <trkpt lat="43.4514" lon="6.56197">
        <ele>35.33</ele>
        <time>2014-01-26T11:11:08Z</time>
      </trkpt>
      <trkpt lat="43.45157" lon="6.5621">
        <ele>34.58</ele>
        <time>2014-01-26T11:11:11Z</time>
      </trkpt>
      <trkpt lat="43.45172" lon="6.56224">
        <ele>34.36</ele>
        <time>2014-01-26T11:11:14Z</time>
      </trkpt>
      <trkpt lat="43.4519" lon="6.56239">
        <ele>34.33</ele>
        <time>2014-01-26T11:11:26Z</time>
      </trkpt>
      <trkpt lat="43.45203" lon="6.56258">
        <ele>34.33</ele>
        <time>2014-01-26T11:11:35Z</time>
      </trkpt>
      <trkpt lat="43.45214" lon="6.56278">
        <ele>33.34</ele>
        <time>2014-01-26T11:11:42Z</time>
      </trkpt>
      <trkpt lat="43.45224" lon="6.56306">
        <ele>33.33</ele>
        <time>2014-01-26T11:12:09Z</time>
      </trkpt>
      <trkpt lat="43.45237" lon="6.56324">
        <ele>32.33</ele>
        <time>2014-01-26T11:12:25Z</time>
      </trkpt>
      <trkpt lat="43.45255" lon="6.56336">
        <ele>31.35</ele>
        <time>2014-01-26T11:12:35Z</time>
      </trkpt>
      <trkpt lat="43.45266" lon="6.56357">
        <ele>31.33</ele>
        <time>2014-01-26T11:12:41Z</time>
      </trkpt>
      <trkpt lat="43.45266" lon="6.56387">
        <ele>30.58</ele>
        <time>2014-01-26T11:12:47Z</time>
      </trkpt>
      <trkpt lat="43.45265" lon="6.56413">
        <ele>29.4</ele>
        <time>2014-01-26T11:12:52Z</time>
      </trkpt>
      <trkpt lat="43.45263" lon="6.56439">
        <ele>28.46</ele>
        <time>2014-01-26T11:12:57Z</time>
      </trkpt>
      <trkpt lat="43.45253" lon="6.56462">
        <ele>28.33</ele>
        <time>2014-01-26T11:13:05Z</time>
      </trkpt>
      <trkpt lat="43.45232" lon="6.56463">
        <ele>28.33</ele>
        <time>2014-01-26T11:13:18Z</time>
      </trkpt>
      <trkpt lat="43.45213" lon="6.56467">
        <ele>29.33</ele>
        <time>2014-01-26T11:13:33Z</time>
      </trkpt>
      <trkpt lat="43.45197" lon="6.56484">
        <ele>31.32</ele>
        <time>2014-01-26T11:13:50Z</time>
      </trkpt>
      <trkpt lat="43.45195" lon="6.56457">
        <ele>34.3</ele>
        <time>2014-01-26T11:14:14Z</time>
      </trkpt>
      <trkpt lat="43.45207" lon="6.56431">
        <ele>37.61</ele>
        <time>2014-01-26T11:14:19Z</time>
      </trkpt>
      <trkpt lat="43.45221" lon="6.56408">
        <ele>39.04</ele>
        <time>2014-01-26T11:14:23Z</time>
      </trkpt>
      <trkpt lat="43.45233" lon="6.56389">
        <ele>39.3</ele>
        <time>2014-01-26T11:14:26Z</time>
      </trkpt>
      <trkpt lat="43.45246" lon="6.5637">
        <ele>40.08</ele>
        <time>2014-01-26T11:14:29Z</time>
      </trkpt>
      <trkpt lat="43.45262" lon="6.56352">
        <ele>40.3</ele>
        <time>2014-01-26T11:14:32Z</time>
      </trkpt>
      <trkpt lat="43.45281" lon="6.56333">
        <ele>40.33</ele>
        <time>2014-01-26T11:14:35Z</time>
      </trkpt>
      <trkpt lat="43.45301" lon="6.56314">
        <ele>40.33</ele>
        <time>2014-01-26T11:14:38Z</time>
      </trkpt>
      <trkpt lat="43.45322" lon="6.56295">
        <ele>39.83</ele>
        <time>2014-01-26T11:14:41Z</time>
      </trkpt>
      <trkpt lat="43.45343" lon="6.56276">
        <ele>39.4</ele>
        <time>2014-01-26T11:14:44Z</time>
      </trkpt>
      <trkpt lat="43.45364" lon="6.56256">
        <ele>39.34</ele>
        <time>2014-01-26T11:14:47Z</time>
      </trkpt>
      <trkpt lat="43.45384" lon="6.56238">
        <ele>38.58</ele>
        <time>2014-01-26T11:14:50Z</time>
      </trkpt>
      <trkpt lat="43.45402" lon="6.5622">
        <ele>38.36</ele>
        <time>2014-01-26T11:14:53Z</time>
      </trkpt>
      <trkpt lat="43.45421" lon="6.56203">
        <ele>38.34</ele>
        <time>2014-01-26T11:14:56Z</time>
      </trkpt>
      <trkpt lat="43.4544" lon="6.56186">
        <ele>38.33</ele>
        <time>2014-01-26T11:14:59Z</time>
      </trkpt>
      <trkpt lat="43.45457" lon="6.56169">
        <ele>38.83</ele>
        <time>2014-01-26T11:15:02Z</time>
      </trkpt>
      <trkpt lat="43.45474" lon="6.56151">
        <ele>39.27</ele>
        <time>2014-01-26T11:15:05Z</time>
      </trkpt>
      <trkpt lat="43.45492" lon="6.56136">
        <ele>38.83</ele>
        <time>2014-01-26T11:15:08Z</time>
      </trkpt>
      <trkpt lat="43.45507" lon="6.56121">
        <ele>38.39</ele>
        <time>2014-01-26T11:15:11Z</time>
      </trkpt>
      <trkpt lat="43.45526" lon="6.56102">
        <ele>38.34</ele>
        <time>2014-01-26T11:15:15Z</time>
      </trkpt>
      <trkpt lat="43.45545" lon="6.56083">
        <ele>38.33</ele>
        <time>2014-01-26T11:15:19Z</time>
      </trkpt>
      <trkpt lat="43.45564" lon="6.56063">
        <ele>38.33</ele>
        <time>2014-01-26T11:15:23Z</time>
      </trkpt>
      <trkpt lat="43.45583" lon="6.56045">
        <ele>38.33</ele>
        <time>2014-01-26T11:15:27Z</time>
      </trkpt>
      <trkpt lat="43.45602" lon="6.56025">
        <ele>38.33</ele>
        <time>2014-01-26T11:15:31Z</time>
      </trkpt>
      <trkpt lat="43.4562" lon="6.56005">
        <ele>38.33</ele>
        <time>2014-01-26T11:15:35Z</time>
      </trkpt>
      <trkpt lat="43.45635" lon="6.55989">
        <ele>38.33</ele>
        <time>2014-01-26T11:15:38Z</time>
      </trkpt>
      <trkpt lat="43.45653" lon="6.55968">
        <ele>37.4</ele>
        <time>2014-01-26T11:15:42Z</time>
      </trkpt>
      <trkpt lat="43.4567" lon="6.55946">
        <ele>36.4</ele>
        <time>2014-01-26T11:15:46Z</time>
      </trkpt>
      <trkpt lat="43.45687" lon="6.55925">
        <ele>35.84</ele>
        <time>2014-01-26T11:15:50Z</time>
      </trkpt>
      <trkpt lat="43.45703" lon="6.55905">
        <ele>35.36</ele>
        <time>2014-01-26T11:15:54Z</time>
      </trkpt>
      <trkpt lat="43.45721" lon="6.55884">
        <ele>35.33</ele>
        <time>2014-01-26T11:15:58Z</time>
      </trkpt>
      <trkpt lat="43.45737" lon="6.55863">
        <ele>35.33</ele>
        <time>2014-01-26T11:16:02Z</time>
      </trkpt>
      <trkpt lat="43.45753" lon="6.55844">
        <ele>35.33</ele>
        <time>2014-01-26T11:16:06Z</time>
      </trkpt>
      <trkpt lat="43.45772" lon="6.55823">
        <ele>35.33</ele>
        <time>2014-01-26T11:16:10Z</time>
      </trkpt>
      <trkpt lat="43.45786" lon="6.55808">
        <ele>35.33</ele>
        <time>2014-01-26T11:16:13Z</time>
      </trkpt>
      <trkpt lat="43.45801" lon="6.55793">
        <ele>35.33</ele>
        <time>2014-01-26T11:16:16Z</time>
      </trkpt>
      <trkpt lat="43.45816" lon="6.55778">
        <ele>34.58</ele>
        <time>2014-01-26T11:16:19Z</time>
      </trkpt>
      <trkpt lat="43.45831" lon="6.55763">
        <ele>34.36</ele>
        <time>2014-01-26T11:16:22Z</time>
      </trkpt>
      <trkpt lat="43.4585" lon="6.55744">
        <ele>33.46</ele>
        <time>2014-01-26T11:16:26Z</time>
      </trkpt>
      <trkpt lat="43.4587" lon="6.55725">
        <ele>33.34</ele>
        <time>2014-01-26T11:16:30Z</time>
      </trkpt>
      <trkpt lat="43.4589" lon="6.55708">
        <ele>33.33</ele>
        <time>2014-01-26T11:16:34Z</time>
      </trkpt>
      <trkpt lat="43.45909" lon="6.55691">
        <ele>34.21</ele>
        <time>2014-01-26T11:16:38Z</time>
      </trkpt>
      <trkpt lat="43.45927" lon="6.55675">
        <ele>35.08</ele>
        <time>2014-01-26T11:16:42Z</time>
      </trkpt>
      <trkpt lat="43.45946" lon="6.55658">
        <ele>35.32</ele>
        <time>2014-01-26T11:16:46Z</time>
      </trkpt>
      <trkpt lat="43.45965" lon="6.55641">
        <ele>35.33</ele>
        <time>2014-01-26T11:16:50Z</time>
      </trkpt>
      <trkpt lat="43.45984" lon="6.55626">
        <ele>34.4</ele>
        <time>2014-01-26T11:16:54Z</time>
      </trkpt>
      <trkpt lat="43.46002" lon="6.5561">
        <ele>34.34</ele>
        <time>2014-01-26T11:16:58Z</time>
      </trkpt>
      <trkpt lat="43.4602" lon="6.55595">
        <ele>34.33</ele>
        <time>2014-01-26T11:17:02Z</time>
      </trkpt>
      <trkpt lat="43.46036" lon="6.55584">
        <ele>33.46</ele>
        <time>2014-01-26T11:17:06Z</time>
      </trkpt>
      <trkpt lat="43.46053" lon="6.55569">
        <ele>32.84</ele>
        <time>2014-01-26T11:17:10Z</time>
      </trkpt>
      <trkpt lat="43.46071" lon="6.55553">
        <ele>32.36</ele>
        <time>2014-01-26T11:17:14Z</time>
      </trkpt>
      <trkpt lat="43.46088" lon="6.55536">
        <ele>32.33</ele>
        <time>2014-01-26T11:17:18Z</time>
      </trkpt>
      <trkpt lat="43.46106" lon="6.5552">
        <ele>33.08</ele>
        <time>2014-01-26T11:17:22Z</time>
      </trkpt>
      <trkpt lat="43.46122" lon="6.55504">
        <ele>33.32</ele>
        <time>2014-01-26T11:17:26Z</time>
      </trkpt>
      <trkpt lat="43.46137" lon="6.55488">
        <ele>33.33</ele>
        <time>2014-01-26T11:17:30Z</time>
      </trkpt>
      <trkpt lat="43.46153" lon="6.55472">
        <ele>33.33</ele>
        <time>2014-01-26T11:17:34Z</time>
      </trkpt>
      <trkpt lat="43.46168" lon="6.55455">
        <ele>34.27</ele>
        <time>2014-01-26T11:17:38Z</time>
      </trkpt>
      <trkpt lat="43.46183" lon="6.55437">
        <ele>34.33</ele>
        <time>2014-01-26T11:17:42Z</time>
      </trkpt>
      <trkpt lat="43.46197" lon="6.55419">
        <ele>34.83</ele>
        <time>2014-01-26T11:17:46Z</time>
      </trkpt>
      <trkpt lat="43.4621" lon="6.55399">
        <ele>35.3</ele>
        <time>2014-01-26T11:17:50Z</time>
      </trkpt>
      <trkpt lat="43.46222" lon="6.55377">
        <ele>36.27</ele>
        <time>2014-01-26T11:17:54Z</time>
      </trkpt>
      <trkpt lat="43.46233" lon="6.55357">
        <ele>37.77</ele>
        <time>2014-01-26T11:17:58Z</time>
      </trkpt>
      <trkpt lat="43.46244" lon="6.55335">
        <ele>38.3</ele>
        <time>2014-01-26T11:18:02Z</time>
      </trkpt>
      <trkpt lat="43.46254" lon="6.55313">
        <ele>38.33</ele>
        <time>2014-01-26T11:18:06Z</time>
      </trkpt>
      <trkpt lat="43.46263" lon="6.5529">
        <ele>38.33</ele>
        <time>2014-01-26T11:18:10Z</time>
      </trkpt>
      <trkpt lat="43.46272" lon="6.55268">
        <ele>38.33</ele>
        <time>2014-01-26T11:18:14Z</time>
      </trkpt>
      <trkpt lat="43.46281" lon="6.55242">
        <ele>39.27</ele>
        <time>2014-01-26T11:18:19Z</time>
      </trkpt>
      <trkpt lat="43.4629" lon="6.55214">
        <ele>39.33</ele>
        <time>2014-01-26T11:18:24Z</time>
      </trkpt>
      <trkpt lat="43.46296" lon="6.55185">
        <ele>40.3</ele>
        <time>2014-01-26T11:18:29Z</time>
      </trkpt>
      <trkpt lat="43.46302" lon="6.55156">
        <ele>41.27</ele>
        <time>2014-01-26T11:18:34Z</time>
      </trkpt>
      <trkpt lat="43.46308" lon="6.55127">
        <ele>41.33</ele>
        <time>2014-01-26T11:18:39Z</time>
      </trkpt>
      <trkpt lat="43.46312" lon="6.551">
        <ele>42.21</ele>
        <time>2014-01-26T11:18:44Z</time>
      </trkpt>
      <trkpt lat="43.46315" lon="6.55073">
        <ele>42.33</ele>
        <time>2014-01-26T11:18:49Z</time>
      </trkpt>
      <trkpt lat="43.46317" lon="6.55047">
        <ele>43.21</ele>
        <time>2014-01-26T11:18:54Z</time>
      </trkpt>
      <trkpt lat="43.46318" lon="6.5502">
        <ele>44.2</ele>
        <time>2014-01-26T11:18:59Z</time>
      </trkpt>
      <trkpt lat="43.46318" lon="6.54995">
        <ele>44.33</ele>
        <time>2014-01-26T11:19:04Z</time>
      </trkpt>
      <trkpt lat="43.4633" lon="6.54977">
        <ele>44.33</ele>
        <time>2014-01-26T11:19:14Z</time>
      </trkpt>
      <trkpt lat="43.46333" lon="6.54952">
        <ele>44.33</ele>
        <time>2014-01-26T11:19:20Z</time>
      </trkpt>
      <trkpt lat="43.46328" lon="6.54928">
        <ele>45.27</ele>
        <time>2014-01-26T11:19:25Z</time>
      </trkpt>
      <trkpt lat="43.46324" lon="6.54901">
        <ele>45.83</ele>
        <time>2014-01-26T11:19:30Z</time>
      </trkpt>
      <trkpt lat="43.4632" lon="6.54871">
        <ele>46.32</ele>
        <time>2014-01-26T11:19:35Z</time>
      </trkpt>
      <trkpt lat="43.46317" lon="6.54846">
        <ele>46.33</ele>
        <time>2014-01-26T11:19:39Z</time>
      </trkpt>
      <trkpt lat="43.46315" lon="6.54816">
        <ele>46.83</ele>
        <time>2014-01-26T11:19:44Z</time>
      </trkpt>
      <trkpt lat="43.46319" lon="6.54786">
        <ele>47.32</ele>
        <time>2014-01-26T11:19:49Z</time>
      </trkpt>
      <trkpt lat="43.46329" lon="6.54766">
        <ele>47.33</ele>
        <time>2014-01-26T11:19:53Z</time>
      </trkpt>
      <trkpt lat="43.46344" lon="6.54744">
        <ele>47.33</ele>
        <time>2014-01-26T11:19:58Z</time>
      </trkpt>
      <trkpt lat="43.46364" lon="6.54733">
        <ele>47.33</ele>
        <time>2014-01-26T11:20:03Z</time>
      </trkpt>
      <trkpt lat="43.46386" lon="6.54741">
        <ele>47.33</ele>
        <time>2014-01-26T11:20:08Z</time>
      </trkpt>
      <trkpt lat="43.46407" lon="6.5475">
        <ele>48.27</ele>
        <time>2014-01-26T11:20:13Z</time>
      </trkpt>
      <trkpt lat="43.46426" lon="6.54759">
        <ele>48.33</ele>
        <time>2014-01-26T11:20:17Z</time>
      </trkpt>
      <trkpt lat="43.46447" lon="6.5477">
        <ele>48.33</ele>
        <time>2014-01-26T11:20:21Z</time>
      </trkpt>
      <trkpt lat="43.4647" lon="6.54776">
        <ele>48.33</ele>
        <time>2014-01-26T11:20:25Z</time>
      </trkpt>
      <trkpt lat="43.46492" lon="6.54777">
        <ele>47.83</ele>
        <time>2014-01-26T11:20:29Z</time>
      </trkpt>
      <trkpt lat="43.46511" lon="6.54787">
        <ele>47.36</ele>
        <time>2014-01-26T11:20:33Z</time>
      </trkpt>
      <trkpt lat="43.46531" lon="6.548">
        <ele>47.33</ele>
        <time>2014-01-26T11:20:37Z</time>
      </trkpt>
      <trkpt lat="43.4655" lon="6.54817">
        <ele>47.33</ele>
        <time>2014-01-26T11:20:41Z</time>
      </trkpt>
      <trkpt lat="43.46569" lon="6.54835">
        <ele>47.33</ele>
        <time>2014-01-26T11:20:45Z</time>
      </trkpt>
      <trkpt lat="43.46589" lon="6.54852">
        <ele>46.46</ele>
        <time>2014-01-26T11:20:49Z</time>
      </trkpt>
      <trkpt lat="43.46607" lon="6.54869">
        <ele>46.34</ele>
        <time>2014-01-26T11:20:53Z</time>
      </trkpt>
      <trkpt lat="43.46624" lon="6.54885">
        <ele>46.33</ele>
        <time>2014-01-26T11:20:57Z</time>
      </trkpt>
      <trkpt lat="43.4664" lon="6.54901">
        <ele>46.33</ele>
        <time>2014-01-26T11:21:01Z</time>
      </trkpt>
      <trkpt lat="43.46659" lon="6.54914">
        <ele>46.33</ele>
        <time>2014-01-26T11:21:05Z</time>
      </trkpt>
      <trkpt lat="43.46679" lon="6.5491">
        <ele>45.4</ele>
        <time>2014-01-26T11:21:09Z</time>
      </trkpt>
      <trkpt lat="43.46698" lon="6.54901">
        <ele>45.84</ele>
        <time>2014-01-26T11:21:13Z</time>
      </trkpt>
      <trkpt lat="43.46716" lon="6.54893">
        <ele>46.3</ele>
        <time>2014-01-26T11:21:17Z</time>
      </trkpt>
      <trkpt lat="43.46736" lon="6.54889">
        <ele>47.08</ele>
        <time>2014-01-26T11:21:22Z</time>
      </trkpt>
      <trkpt lat="43.4675" lon="6.54911">
        <ele>47.33</ele>
        <time>2014-01-26T11:21:28Z</time>
      </trkpt>
      <trkpt lat="43.46763" lon="6.54931">
        <ele>47.33</ele>
        <time>2014-01-26T11:21:33Z</time>
      </trkpt>
      <trkpt lat="43.4677" lon="6.54956">
        <ele>47.33</ele>
        <time>2014-01-26T11:21:38Z</time>
      </trkpt>
      <trkpt lat="43.46779" lon="6.54983">
        <ele>47.33</ele>
        <time>2014-01-26T11:21:44Z</time>
      </trkpt>
      <trkpt lat="43.46787" lon="6.5501">
        <ele>46.83</ele>
        <time>2014-01-26T11:21:48Z</time>
      </trkpt>
      <trkpt lat="43.46796" lon="6.55041">
        <ele>46.36</ele>
        <time>2014-01-26T11:21:52Z</time>
      </trkpt>
      <trkpt lat="43.46802" lon="6.55064">
        <ele>47.09</ele>
        <time>2014-01-26T11:21:55Z</time>
      </trkpt>
      <trkpt lat="43.4681" lon="6.55093">
        <ele>47.32</ele>
        <time>2014-01-26T11:21:59Z</time>
      </trkpt>
      <trkpt lat="43.46818" lon="6.55123">
        <ele>47.33</ele>
        <time>2014-01-26T11:22:03Z</time>
      </trkpt>
      <trkpt lat="43.46826" lon="6.55152">
        <ele>47.33</ele>
        <time>2014-01-26T11:22:07Z</time>
      </trkpt>
      <trkpt lat="43.46834" lon="6.55181">
        <ele>47.33</ele>
        <time>2014-01-26T11:22:11Z</time>
      </trkpt>
      <trkpt lat="43.46841" lon="6.5521">
        <ele>47.33</ele>
        <time>2014-01-26T11:22:15Z</time>
      </trkpt>
      <trkpt lat="43.46849" lon="6.55239">
        <ele>47.33</ele>
        <time>2014-01-26T11:22:19Z</time>
      </trkpt>
      <trkpt lat="43.46857" lon="6.55268">
        <ele>47.33</ele>
        <time>2014-01-26T11:22:23Z</time>
      </trkpt>
      <trkpt lat="43.46864" lon="6.55296">
        <ele>47.33</ele>
        <time>2014-01-26T11:22:27Z</time>
      </trkpt>
      <trkpt lat="43.46871" lon="6.55325">
        <ele>47.33</ele>
        <time>2014-01-26T11:22:31Z</time>
      </trkpt>
      <trkpt lat="43.4688" lon="6.55355">
        <ele>48.27</ele>
        <time>2014-01-26T11:22:35Z</time>
      </trkpt>
      <trkpt lat="43.46889" lon="6.55385">
        <ele>48.33</ele>
        <time>2014-01-26T11:22:39Z</time>
      </trkpt>
      <trkpt lat="43.46896" lon="6.55409">
        <ele>48.33</ele>
        <time>2014-01-26T11:22:42Z</time>
      </trkpt>
      <trkpt lat="43.46902" lon="6.55434">
        <ele>48.33</ele>
        <time>2014-01-26T11:22:45Z</time>
      </trkpt>
      <trkpt lat="43.46908" lon="6.55458">
        <ele>48.33</ele>
        <time>2014-01-26T11:22:48Z</time>
      </trkpt>
      <trkpt lat="43.46915" lon="6.55483">
        <ele>48.33</ele>
        <time>2014-01-26T11:22:51Z</time>
      </trkpt>
      <trkpt lat="43.46921" lon="6.55508">
        <ele>48.33</ele>
        <time>2014-01-26T11:22:54Z</time>
      </trkpt>
      <trkpt lat="43.46928" lon="6.55533">
        <ele>48.33</ele>
        <time>2014-01-26T11:22:57Z</time>
      </trkpt>
      <trkpt lat="43.46934" lon="6.55557">
        <ele>48.33</ele>
        <time>2014-01-26T11:23:00Z</time>
      </trkpt>
      <trkpt lat="43.4694" lon="6.55582">
        <ele>48.33</ele>
        <time>2014-01-26T11:23:03Z</time>
      </trkpt>
      <trkpt lat="43.46946" lon="6.55606">
        <ele>48.33</ele>
        <time>2014-01-26T11:23:06Z</time>
      </trkpt>
      <trkpt lat="43.46952" lon="6.55636">
        <ele>48.33</ele>
        <time>2014-01-26T11:23:10Z</time>
      </trkpt>
      <trkpt lat="43.46963" lon="6.55662">
        <ele>48.33</ele>
        <time>2014-01-26T11:23:15Z</time>
      </trkpt>
      <trkpt lat="43.46976" lon="6.55684">
        <ele>48.33</ele>
        <time>2014-01-26T11:23:20Z</time>
      </trkpt>
      <trkpt lat="43.46983" lon="6.55712">
        <ele>48.33</ele>
        <time>2014-01-26T11:23:25Z</time>
      </trkpt>
      <trkpt lat="43.47001" lon="6.55722">
        <ele>48.33</ele>
        <time>2014-01-26T11:23:32Z</time>
      </trkpt>
      <trkpt lat="43.47021" lon="6.55722">
        <ele>48.33</ele>
        <time>2014-01-26T11:23:38Z</time>
      </trkpt>
      <trkpt lat="43.47037" lon="6.55735">
        <ele>48.33</ele>
        <time>2014-01-26T11:23:44Z</time>
      </trkpt>
      <trkpt lat="43.47056" lon="6.55727">
        <ele>48.33</ele>
        <time>2014-01-26T11:23:50Z</time>
      </trkpt>
      <trkpt lat="43.47067" lon="6.55705">
        <ele>48.33</ele>
        <time>2014-01-26T11:23:57Z</time>
      </trkpt>
      <trkpt lat="43.47057" lon="6.55681">
        <ele>49.3</ele>
        <time>2014-01-26T11:24:09Z</time>
      </trkpt>
      <trkpt lat="43.47065" lon="6.55658">
        <ele>49.33</ele>
        <time>2014-01-26T11:24:18Z</time>
      </trkpt>
      <trkpt lat="43.47083" lon="6.55662">
        <ele>50.33</ele>
        <time>2014-01-26T11:24:32Z</time>
      </trkpt>
    </trkseg>
  </trk>
</gpx>